<?xml version="1.0" encoding="UTF-8" standalone="no" ?>
<gpx xmlns="http://www.topografix.com/GPX/1/1" xmlns:xsi="http://www.w3.org/2001/XMLSchema-instance" xsi:schemaLocation="http://www.topografix.com/GPX/1/1 http://www.topografix.com/GPX/1/1/gpx.xsd" version="1.1" creator="VisuGPX - https://www.visugpx.com">
  <metadata>
    <name>2021-12-09 dans la neige depuis la chapelle</name>
  </metadata>
  <trk>
    <name><![CDATA[2021-12-09 dans la neige depuis la chapelle m]]></name>
    <extensions>
      <line xmlns="http://www.topografix.com/GPX/gpx_style/0/2">
        <color>0000FF</color>
        <opacity>0.59</opacity>
        <width>6.0</width>
      </line>
    </extensions>
    <trkseg>
      <trkpt lat="48.00136" lon="7.00246">
        <ele>684.4</ele>
        <time>2021-12-09T08:03:11.000Z</time>
      </trkpt>
      <trkpt lat="48.00126" lon="7.00243">
        <ele>684.1</ele>
        <time>2021-12-09T08:03:20.000Z</time>
      </trkpt>
      <trkpt lat="48.00116" lon="7.00243">
        <ele>683.7</ele>
        <time>2021-12-09T08:03:44.000Z</time>
      </trkpt>
      <trkpt lat="48.00126" lon="7.00229">
        <ele>685.4</ele>
        <time>2021-12-09T08:04:44.000Z</time>
      </trkpt>
      <trkpt lat="48.00129" lon="7.00216">
        <ele>687.2</ele>
        <time>2021-12-09T08:04:56.000Z</time>
      </trkpt>
      <trkpt lat="48.00121" lon="7.00208">
        <ele>688.2</ele>
        <time>2021-12-09T08:05:04.000Z</time>
      </trkpt>
      <trkpt lat="48.00113" lon="7.00201">
        <ele>688.9</ele>
        <time>2021-12-09T08:05:10.000Z</time>
      </trkpt>
      <trkpt lat="48.00104" lon="7.00193">
        <ele>690</ele>
        <time>2021-12-09T08:05:16.000Z</time>
      </trkpt>
      <trkpt lat="48.00097" lon="7.00185">
        <ele>691.1</ele>
        <time>2021-12-09T08:05:24.000Z</time>
      </trkpt>
      <trkpt lat="48.00091" lon="7.00171">
        <ele>693.2</ele>
        <time>2021-12-09T08:05:33.000Z</time>
      </trkpt>
      <trkpt lat="48.00086" lon="7.00158">
        <ele>694.7</ele>
        <time>2021-12-09T08:05:40.000Z</time>
      </trkpt>
      <trkpt lat="48.00087" lon="7.00144">
        <ele>696</ele>
        <time>2021-12-09T08:05:48.000Z</time>
      </trkpt>
      <trkpt lat="48.00085" lon="7.00129">
        <ele>697.2</ele>
        <time>2021-12-09T08:05:56.000Z</time>
      </trkpt>
      <trkpt lat="48.00082" lon="7.00116">
        <ele>698.5</ele>
        <time>2021-12-09T08:06:04.000Z</time>
      </trkpt>
      <trkpt lat="48.00083" lon="7.00102">
        <ele>699.6</ele>
        <time>2021-12-09T08:06:13.000Z</time>
      </trkpt>
      <trkpt lat="48.00079" lon="7.00091">
        <ele>700.7</ele>
        <time>2021-12-09T08:06:23.000Z</time>
      </trkpt>
      <trkpt lat="48.0007" lon="7.00084">
        <ele>701.9</ele>
        <time>2021-12-09T08:06:29.000Z</time>
      </trkpt>
      <trkpt lat="48.00066" lon="7.00072">
        <ele>703.8</ele>
        <time>2021-12-09T08:06:36.000Z</time>
      </trkpt>
      <trkpt lat="48.0007" lon="7.0006">
        <ele>704.8</ele>
        <time>2021-12-09T08:06:45.000Z</time>
      </trkpt>
      <trkpt lat="48.00076" lon="7.0005">
        <ele>705.1</ele>
        <time>2021-12-09T08:06:58.000Z</time>
      </trkpt>
      <trkpt lat="48.00071" lon="7.00025">
        <ele>709.9</ele>
        <time>2021-12-09T08:07:12.000Z</time>
      </trkpt>
      <trkpt lat="48.00074" lon="7.00011">
        <ele>711.2</ele>
        <time>2021-12-09T08:07:26.000Z</time>
      </trkpt>
      <trkpt lat="48.00069" lon="7.00023">
        <ele>711</ele>
        <time>2021-12-09T08:07:50.000Z</time>
      </trkpt>
      <trkpt lat="48.00063" lon="7.00035">
        <ele>710.6</ele>
        <time>2021-12-09T08:07:57.000Z</time>
      </trkpt>
      <trkpt lat="48.00058" lon="7.00047">
        <ele>709.4</ele>
        <time>2021-12-09T08:08:03.000Z</time>
      </trkpt>
      <trkpt lat="48.00051" lon="7.00057">
        <ele>709.7</ele>
        <time>2021-12-09T08:08:10.000Z</time>
      </trkpt>
      <trkpt lat="48.00044" lon="7.00067">
        <ele>710.3</ele>
        <time>2021-12-09T08:08:17.000Z</time>
      </trkpt>
      <trkpt lat="48.00041" lon="7.0008">
        <ele>709</ele>
        <time>2021-12-09T08:08:22.000Z</time>
      </trkpt>
      <trkpt lat="48.00038" lon="7.00094">
        <ele>707.7</ele>
        <time>2021-12-09T08:08:28.000Z</time>
      </trkpt>
      <trkpt lat="48.0003" lon="7.00104">
        <ele>709.3</ele>
        <time>2021-12-09T08:08:35.000Z</time>
      </trkpt>
      <trkpt lat="48.0002" lon="7.00108">
        <ele>712.7</ele>
        <time>2021-12-09T08:08:41.000Z</time>
      </trkpt>
      <trkpt lat="48.00014" lon="7.00119">
        <ele>713.7</ele>
        <time>2021-12-09T08:08:50.000Z</time>
      </trkpt>
      <trkpt lat="48.0001" lon="7.00132">
        <ele>713.2</ele>
        <time>2021-12-09T08:08:58.000Z</time>
      </trkpt>
      <trkpt lat="48.00003" lon="7.0014">
        <ele>714.7</ele>
        <time>2021-12-09T08:09:04.000Z</time>
      </trkpt>
      <trkpt lat="47.99996" lon="7.00151">
        <ele>716.1</ele>
        <time>2021-12-09T08:09:14.000Z</time>
      </trkpt>
      <trkpt lat="47.99989" lon="7.00162">
        <ele>717.4</ele>
        <time>2021-12-09T08:09:22.000Z</time>
      </trkpt>
      <trkpt lat="47.99981" lon="7.0017">
        <ele>718.8</ele>
        <time>2021-12-09T08:09:29.000Z</time>
      </trkpt>
      <trkpt lat="47.99973" lon="7.0018">
        <ele>720.4</ele>
        <time>2021-12-09T08:09:38.000Z</time>
      </trkpt>
      <trkpt lat="47.99967" lon="7.00191">
        <ele>721.3</ele>
        <time>2021-12-09T08:09:46.000Z</time>
      </trkpt>
      <trkpt lat="47.99962" lon="7.00203">
        <ele>722.7</ele>
        <time>2021-12-09T08:09:55.000Z</time>
      </trkpt>
      <trkpt lat="47.99958" lon="7.00217">
        <ele>723.1</ele>
        <time>2021-12-09T08:10:03.000Z</time>
      </trkpt>
      <trkpt lat="47.99951" lon="7.00229">
        <ele>724.3</ele>
        <time>2021-12-09T08:10:11.000Z</time>
      </trkpt>
      <trkpt lat="47.99946" lon="7.00242">
        <ele>724.6</ele>
        <time>2021-12-09T08:10:22.000Z</time>
      </trkpt>
      <trkpt lat="47.99939" lon="7.00253">
        <ele>725.5</ele>
        <time>2021-12-09T08:10:29.000Z</time>
      </trkpt>
      <trkpt lat="47.99931" lon="7.00259">
        <ele>726.7</ele>
        <time>2021-12-09T08:10:36.000Z</time>
      </trkpt>
      <trkpt lat="47.99922" lon="7.00265">
        <ele>727.8</ele>
        <time>2021-12-09T08:10:46.000Z</time>
      </trkpt>
      <trkpt lat="47.99913" lon="7.0027">
        <ele>728.9</ele>
        <time>2021-12-09T08:10:55.000Z</time>
      </trkpt>
      <trkpt lat="47.99903" lon="7.00275">
        <ele>729.2</ele>
        <time>2021-12-09T08:11:01.000Z</time>
      </trkpt>
      <trkpt lat="47.99895" lon="7.00279">
        <ele>729.5</ele>
        <time>2021-12-09T08:11:08.000Z</time>
      </trkpt>
      <trkpt lat="47.99886" lon="7.00283">
        <ele>729.6</ele>
        <time>2021-12-09T08:11:15.000Z</time>
      </trkpt>
      <trkpt lat="47.99878" lon="7.00289">
        <ele>729.7</ele>
        <time>2021-12-09T08:11:25.000Z</time>
      </trkpt>
      <trkpt lat="47.99869" lon="7.00293">
        <ele>730.8</ele>
        <time>2021-12-09T08:11:35.000Z</time>
      </trkpt>
      <trkpt lat="47.99858" lon="7.00289">
        <ele>734.7</ele>
        <time>2021-12-09T08:11:45.000Z</time>
      </trkpt>
      <trkpt lat="47.99848" lon="7.00287">
        <ele>735.8</ele>
        <time>2021-12-09T08:11:53.000Z</time>
      </trkpt>
      <trkpt lat="47.9984" lon="7.00281">
        <ele>738.1</ele>
        <time>2021-12-09T08:12:17.000Z</time>
      </trkpt>
      <trkpt lat="47.99832" lon="7.00272">
        <ele>740.6</ele>
        <time>2021-12-09T08:12:40.000Z</time>
      </trkpt>
      <trkpt lat="47.99829" lon="7.00287">
        <ele>737</ele>
        <time>2021-12-09T08:13:09.000Z</time>
      </trkpt>
      <trkpt lat="47.99829" lon="7.00303">
        <ele>732.9</ele>
        <time>2021-12-09T08:13:15.000Z</time>
      </trkpt>
      <trkpt lat="47.99816" lon="7.00317">
        <ele>740.2</ele>
        <time>2021-12-09T08:13:20.000Z</time>
      </trkpt>
      <trkpt lat="47.99818" lon="7.0033">
        <ele>742.1</ele>
        <time>2021-12-09T08:13:31.000Z</time>
      </trkpt>
      <trkpt lat="47.99825" lon="7.00341">
        <ele>741.9</ele>
        <time>2021-12-09T08:13:39.000Z</time>
      </trkpt>
      <trkpt lat="47.99833" lon="7.00351">
        <ele>741.7</ele>
        <time>2021-12-09T08:13:48.000Z</time>
      </trkpt>
      <trkpt lat="47.99841" lon="7.0036">
        <ele>740.4</ele>
        <time>2021-12-09T08:13:56.000Z</time>
      </trkpt>
      <trkpt lat="47.99851" lon="7.00366">
        <ele>736.1</ele>
        <time>2021-12-09T08:14:02.000Z</time>
      </trkpt>
      <trkpt lat="47.99861" lon="7.00373">
        <ele>732.5</ele>
        <time>2021-12-09T08:14:07.000Z</time>
      </trkpt>
      <trkpt lat="47.9986" lon="7.00386">
        <ele>736.1</ele>
        <time>2021-12-09T08:14:16.000Z</time>
      </trkpt>
      <trkpt lat="47.99857" lon="7.00402">
        <ele>742.5</ele>
        <time>2021-12-09T08:14:27.000Z</time>
      </trkpt>
      <trkpt lat="47.99862" lon="7.00413">
        <ele>746.4</ele>
        <time>2021-12-09T08:14:36.000Z</time>
      </trkpt>
      <trkpt lat="47.9987" lon="7.0042">
        <ele>748.3</ele>
        <time>2021-12-09T08:14:43.000Z</time>
      </trkpt>
      <trkpt lat="47.99879" lon="7.00423">
        <ele>748.6</ele>
        <time>2021-12-09T08:14:51.000Z</time>
      </trkpt>
      <trkpt lat="47.99886" lon="7.00433">
        <ele>752</ele>
        <time>2021-12-09T08:15:06.000Z</time>
      </trkpt>
      <trkpt lat="47.99895" lon="7.00442">
        <ele>752.6</ele>
        <time>2021-12-09T08:15:14.000Z</time>
      </trkpt>
      <trkpt lat="47.99899" lon="7.00454">
        <ele>754.7</ele>
        <time>2021-12-09T08:15:25.000Z</time>
      </trkpt>
      <trkpt lat="47.99889" lon="7.00458">
        <ele>759.6</ele>
        <time>2021-12-09T08:15:33.000Z</time>
      </trkpt>
      <trkpt lat="47.9988" lon="7.0046">
        <ele>762.1</ele>
        <time>2021-12-09T08:15:41.000Z</time>
      </trkpt>
      <trkpt lat="47.99871" lon="7.00457">
        <ele>762.8</ele>
        <time>2021-12-09T08:15:48.000Z</time>
      </trkpt>
      <trkpt lat="47.99862" lon="7.00452">
        <ele>762.7</ele>
        <time>2021-12-09T08:15:54.000Z</time>
      </trkpt>
      <trkpt lat="47.99853" lon="7.00456">
        <ele>764.9</ele>
        <time>2021-12-09T08:16:00.000Z</time>
      </trkpt>
      <trkpt lat="47.99843" lon="7.00455">
        <ele>765.8</ele>
        <time>2021-12-09T08:16:07.000Z</time>
      </trkpt>
      <trkpt lat="47.99834" lon="7.00455">
        <ele>766.8</ele>
        <time>2021-12-09T08:16:14.000Z</time>
      </trkpt>
      <trkpt lat="47.99825" lon="7.00452">
        <ele>766.9</ele>
        <time>2021-12-09T08:16:22.000Z</time>
      </trkpt>
      <trkpt lat="47.99816" lon="7.00449">
        <ele>767.1</ele>
        <time>2021-12-09T08:16:34.000Z</time>
      </trkpt>
      <trkpt lat="47.99808" lon="7.00443">
        <ele>766.3</ele>
        <time>2021-12-09T08:16:51.000Z</time>
      </trkpt>
      <trkpt lat="47.99803" lon="7.0043">
        <ele>765</ele>
        <time>2021-12-09T08:17:01.000Z</time>
      </trkpt>
      <trkpt lat="47.99801" lon="7.00417">
        <ele>763.3</ele>
        <time>2021-12-09T08:17:10.000Z</time>
      </trkpt>
      <trkpt lat="47.99799" lon="7.00402">
        <ele>765.1</ele>
        <time>2021-12-09T08:17:16.000Z</time>
      </trkpt>
      <trkpt lat="47.99794" lon="7.0039">
        <ele>768</ele>
        <time>2021-12-09T08:17:23.000Z</time>
      </trkpt>
      <trkpt lat="47.99789" lon="7.00377">
        <ele>768.3</ele>
        <time>2021-12-09T08:17:28.000Z</time>
      </trkpt>
      <trkpt lat="47.99786" lon="7.00365">
        <ele>768</ele>
        <time>2021-12-09T08:17:34.000Z</time>
      </trkpt>
      <trkpt lat="47.99779" lon="7.00355">
        <ele>770.3</ele>
        <time>2021-12-09T08:17:39.000Z</time>
      </trkpt>
      <trkpt lat="47.99773" lon="7.00344">
        <ele>771.7</ele>
        <time>2021-12-09T08:17:48.000Z</time>
      </trkpt>
      <trkpt lat="47.99768" lon="7.00332">
        <ele>773.4</ele>
        <time>2021-12-09T08:18:02.000Z</time>
      </trkpt>
      <trkpt lat="47.99762" lon="7.00322">
        <ele>775.7</ele>
        <time>2021-12-09T08:18:11.000Z</time>
      </trkpt>
      <trkpt lat="47.99755" lon="7.00311">
        <ele>778.3</ele>
        <time>2021-12-09T08:18:17.000Z</time>
      </trkpt>
      <trkpt lat="47.99752" lon="7.00298">
        <ele>779.4</ele>
        <time>2021-12-09T08:18:25.000Z</time>
      </trkpt>
      <trkpt lat="47.9975" lon="7.00284">
        <ele>779.5</ele>
        <time>2021-12-09T08:18:33.000Z</time>
      </trkpt>
      <trkpt lat="47.99745" lon="7.00273">
        <ele>782.2</ele>
        <time>2021-12-09T08:18:44.000Z</time>
      </trkpt>
      <trkpt lat="47.99738" lon="7.00264">
        <ele>786.1</ele>
        <time>2021-12-09T08:19:01.000Z</time>
      </trkpt>
      <trkpt lat="47.99733" lon="7.0025">
        <ele>788.4</ele>
        <time>2021-12-09T08:19:09.000Z</time>
      </trkpt>
      <trkpt lat="47.99725" lon="7.00239">
        <ele>792.8</ele>
        <time>2021-12-09T08:19:16.000Z</time>
      </trkpt>
      <trkpt lat="47.99724" lon="7.00223">
        <ele>793.2</ele>
        <time>2021-12-09T08:19:28.000Z</time>
      </trkpt>
      <trkpt lat="47.99721" lon="7.00208">
        <ele>794.5</ele>
        <time>2021-12-09T08:19:38.000Z</time>
      </trkpt>
      <trkpt lat="47.9972" lon="7.00195">
        <ele>795.1</ele>
        <time>2021-12-09T08:19:46.000Z</time>
      </trkpt>
      <trkpt lat="47.99718" lon="7.0018">
        <ele>796.1</ele>
        <time>2021-12-09T08:19:52.000Z</time>
      </trkpt>
      <trkpt lat="47.99718" lon="7.00167">
        <ele>795.9</ele>
        <time>2021-12-09T08:20:02.000Z</time>
      </trkpt>
      <trkpt lat="47.99721" lon="7.00148">
        <ele>794.8</ele>
        <time>2021-12-09T08:20:07.000Z</time>
      </trkpt>
      <trkpt lat="47.9972" lon="7.00133">
        <ele>795</ele>
        <time>2021-12-09T08:20:12.000Z</time>
      </trkpt>
      <trkpt lat="47.9972" lon="7.00117">
        <ele>796</ele>
        <time>2021-12-09T08:20:17.000Z</time>
      </trkpt>
      <trkpt lat="47.99719" lon="7.00101">
        <ele>797</ele>
        <time>2021-12-09T08:20:23.000Z</time>
      </trkpt>
      <trkpt lat="47.99718" lon="7.00088">
        <ele>798</ele>
        <time>2021-12-09T08:20:28.000Z</time>
      </trkpt>
      <trkpt lat="47.99719" lon="7.00074">
        <ele>797.7</ele>
        <time>2021-12-09T08:20:36.000Z</time>
      </trkpt>
      <trkpt lat="47.99718" lon="7.00061">
        <ele>798.1</ele>
        <time>2021-12-09T08:20:51.000Z</time>
      </trkpt>
      <trkpt lat="47.99719" lon="7.00046">
        <ele>798.6</ele>
        <time>2021-12-09T08:21:03.000Z</time>
      </trkpt>
      <trkpt lat="47.99718" lon="7.00032">
        <ele>800.2</ele>
        <time>2021-12-09T08:21:13.000Z</time>
      </trkpt>
      <trkpt lat="47.9972" lon="7.00016">
        <ele>800.8</ele>
        <time>2021-12-09T08:21:30.000Z</time>
      </trkpt>
      <trkpt lat="47.99722" lon="7.00002">
        <ele>800.9</ele>
        <time>2021-12-09T08:21:35.000Z</time>
      </trkpt>
      <trkpt lat="47.99727" lon="6.99988">
        <ele>801</ele>
        <time>2021-12-09T08:21:43.000Z</time>
      </trkpt>
      <trkpt lat="47.99732" lon="6.99977">
        <ele>800.6</ele>
        <time>2021-12-09T08:21:49.000Z</time>
      </trkpt>
      <trkpt lat="47.99738" lon="6.99967">
        <ele>800.2</ele>
        <time>2021-12-09T08:21:57.000Z</time>
      </trkpt>
      <trkpt lat="47.99741" lon="6.99954">
        <ele>801.8</ele>
        <time>2021-12-09T08:22:10.000Z</time>
      </trkpt>
      <trkpt lat="47.99728" lon="6.99952">
        <ele>804.1</ele>
        <time>2021-12-09T08:22:22.000Z</time>
      </trkpt>
      <trkpt lat="47.99718" lon="6.99955">
        <ele>806.7</ele>
        <time>2021-12-09T08:22:29.000Z</time>
      </trkpt>
      <trkpt lat="47.99712" lon="6.99966">
        <ele>809.3</ele>
        <time>2021-12-09T08:22:37.000Z</time>
      </trkpt>
      <trkpt lat="47.99708" lon="6.99978">
        <ele>810.5</ele>
        <time>2021-12-09T08:22:46.000Z</time>
      </trkpt>
      <trkpt lat="47.99704" lon="6.99991">
        <ele>810.5</ele>
        <time>2021-12-09T08:22:53.000Z</time>
      </trkpt>
      <trkpt lat="47.99703" lon="7.00005">
        <ele>809.7</ele>
        <time>2021-12-09T08:23:04.000Z</time>
      </trkpt>
      <trkpt lat="47.99701" lon="7.00018">
        <ele>808.8</ele>
        <time>2021-12-09T08:23:11.000Z</time>
      </trkpt>
      <trkpt lat="47.99697" lon="7.00031">
        <ele>809</ele>
        <time>2021-12-09T08:24:33.000Z</time>
      </trkpt>
      <trkpt lat="47.99706" lon="7.00031">
        <ele>805.3</ele>
        <time>2021-12-09T08:25:35.000Z</time>
      </trkpt>
      <trkpt lat="47.99706" lon="7.00045">
        <ele>805</ele>
        <time>2021-12-09T08:26:17.000Z</time>
      </trkpt>
      <trkpt lat="47.99697" lon="7.00052">
        <ele>809.5</ele>
        <time>2021-12-09T08:26:24.000Z</time>
      </trkpt>
      <trkpt lat="47.99692" lon="7.00064">
        <ele>812</ele>
        <time>2021-12-09T08:26:31.000Z</time>
      </trkpt>
      <trkpt lat="47.9969" lon="7.00077">
        <ele>812.6</ele>
        <time>2021-12-09T08:26:43.000Z</time>
      </trkpt>
      <trkpt lat="47.99689" lon="7.00091">
        <ele>811.9</ele>
        <time>2021-12-09T08:26:57.000Z</time>
      </trkpt>
      <trkpt lat="47.99698" lon="7.00095">
        <ele>807.5</ele>
        <time>2021-12-09T08:27:23.000Z</time>
      </trkpt>
      <trkpt lat="47.99693" lon="7.00083">
        <ele>811.4</ele>
        <time>2021-12-09T08:27:40.000Z</time>
      </trkpt>
      <trkpt lat="47.99685" lon="7.0009">
        <ele>813.6</ele>
        <time>2021-12-09T08:30:12.000Z</time>
      </trkpt>
      <trkpt lat="47.99691" lon="7.0008">
        <ele>812</ele>
        <time>2021-12-09T08:30:52.000Z</time>
      </trkpt>
      <trkpt lat="47.99682" lon="7.00082">
        <ele>815.1</ele>
        <time>2021-12-09T08:31:35.000Z</time>
      </trkpt>
      <trkpt lat="47.99679" lon="7.00069">
        <ele>816.4</ele>
        <time>2021-12-09T08:31:48.000Z</time>
      </trkpt>
      <trkpt lat="47.99679" lon="7.00054">
        <ele>816.5</ele>
        <time>2021-12-09T08:31:56.000Z</time>
      </trkpt>
      <trkpt lat="47.99681" lon="7.00041">
        <ele>815.9</ele>
        <time>2021-12-09T08:32:02.000Z</time>
      </trkpt>
      <trkpt lat="47.99686" lon="7.0003">
        <ele>813.7</ele>
        <time>2021-12-09T08:32:09.000Z</time>
      </trkpt>
      <trkpt lat="47.99688" lon="7.00016">
        <ele>814.4</ele>
        <time>2021-12-09T08:32:20.000Z</time>
      </trkpt>
      <trkpt lat="47.99687" lon="7.00001">
        <ele>817.1</ele>
        <time>2021-12-09T08:32:30.000Z</time>
      </trkpt>
      <trkpt lat="47.9969" lon="6.99988">
        <ele>817.3</ele>
        <time>2021-12-09T08:32:44.000Z</time>
      </trkpt>
      <trkpt lat="47.99691" lon="6.99974">
        <ele>818.1</ele>
        <time>2021-12-09T08:32:56.000Z</time>
      </trkpt>
      <trkpt lat="47.99691" lon="6.9996">
        <ele>818.7</ele>
        <time>2021-12-09T08:33:09.000Z</time>
      </trkpt>
      <trkpt lat="47.99687" lon="6.99947">
        <ele>820.4</ele>
        <time>2021-12-09T08:33:19.000Z</time>
      </trkpt>
      <trkpt lat="47.99684" lon="6.99933">
        <ele>821.9</ele>
        <time>2021-12-09T08:33:30.000Z</time>
      </trkpt>
      <trkpt lat="47.99684" lon="6.99918">
        <ele>822.2</ele>
        <time>2021-12-09T08:33:43.000Z</time>
      </trkpt>
      <trkpt lat="47.99683" lon="6.99903">
        <ele>822.4</ele>
        <time>2021-12-09T08:33:56.000Z</time>
      </trkpt>
      <trkpt lat="47.99679" lon="6.99891">
        <ele>824.6</ele>
        <time>2021-12-09T08:34:02.000Z</time>
      </trkpt>
      <trkpt lat="47.99677" lon="6.99877">
        <ele>825.7</ele>
        <time>2021-12-09T08:34:13.000Z</time>
      </trkpt>
      <trkpt lat="47.99674" lon="6.99864">
        <ele>827.7</ele>
        <time>2021-12-09T08:34:22.000Z</time>
      </trkpt>
      <trkpt lat="47.99671" lon="6.9985">
        <ele>828.9</ele>
        <time>2021-12-09T08:34:27.000Z</time>
      </trkpt>
      <trkpt lat="47.9967" lon="6.99836">
        <ele>829.7</ele>
        <time>2021-12-09T08:34:33.000Z</time>
      </trkpt>
      <trkpt lat="47.99668" lon="6.99823">
        <ele>829.6</ele>
        <time>2021-12-09T08:34:40.000Z</time>
      </trkpt>
      <trkpt lat="47.99666" lon="6.99809">
        <ele>829.6</ele>
        <time>2021-12-09T08:34:52.000Z</time>
      </trkpt>
      <trkpt lat="47.9966" lon="6.99797">
        <ele>830.2</ele>
        <time>2021-12-09T08:35:02.000Z</time>
      </trkpt>
      <trkpt lat="47.99654" lon="6.99787">
        <ele>831.1</ele>
        <time>2021-12-09T08:35:14.000Z</time>
      </trkpt>
      <trkpt lat="47.99647" lon="6.99778">
        <ele>833</ele>
        <time>2021-12-09T08:35:32.000Z</time>
      </trkpt>
      <trkpt lat="47.99638" lon="6.9977">
        <ele>835.1</ele>
        <time>2021-12-09T08:35:39.000Z</time>
      </trkpt>
      <trkpt lat="47.99633" lon="6.99759">
        <ele>835.4</ele>
        <time>2021-12-09T08:35:48.000Z</time>
      </trkpt>
      <trkpt lat="47.9963" lon="6.99746">
        <ele>835</ele>
        <time>2021-12-09T08:37:00.000Z</time>
      </trkpt>
      <trkpt lat="47.99624" lon="6.99735">
        <ele>836.2</ele>
        <time>2021-12-09T08:37:49.000Z</time>
      </trkpt>
      <trkpt lat="47.99619" lon="6.9972">
        <ele>836.9</ele>
        <time>2021-12-09T08:38:01.000Z</time>
      </trkpt>
      <trkpt lat="47.99613" lon="6.99711">
        <ele>838</ele>
        <time>2021-12-09T08:38:08.000Z</time>
      </trkpt>
      <trkpt lat="47.99606" lon="6.99701">
        <ele>838.8</ele>
        <time>2021-12-09T08:38:15.000Z</time>
      </trkpt>
      <trkpt lat="47.99598" lon="6.99695">
        <ele>841.3</ele>
        <time>2021-12-09T08:38:25.000Z</time>
      </trkpt>
      <trkpt lat="47.99593" lon="6.99682">
        <ele>842.3</ele>
        <time>2021-12-09T08:38:37.000Z</time>
      </trkpt>
      <trkpt lat="47.99588" lon="6.99671">
        <ele>842.9</ele>
        <time>2021-12-09T08:38:53.000Z</time>
      </trkpt>
      <trkpt lat="47.9958" lon="6.99663">
        <ele>844.2</ele>
        <time>2021-12-09T08:39:04.000Z</time>
      </trkpt>
      <trkpt lat="47.99572" lon="6.99655">
        <ele>845.2</ele>
        <time>2021-12-09T08:39:14.000Z</time>
      </trkpt>
      <trkpt lat="47.99567" lon="6.99643">
        <ele>845.3</ele>
        <time>2021-12-09T08:39:23.000Z</time>
      </trkpt>
      <trkpt lat="47.9956" lon="6.99632">
        <ele>846.6</ele>
        <time>2021-12-09T08:39:34.000Z</time>
      </trkpt>
      <trkpt lat="47.99553" lon="6.99622">
        <ele>847.4</ele>
        <time>2021-12-09T08:39:51.000Z</time>
      </trkpt>
      <trkpt lat="47.99546" lon="6.99615">
        <ele>849</ele>
        <time>2021-12-09T08:40:03.000Z</time>
      </trkpt>
      <trkpt lat="47.99539" lon="6.99605">
        <ele>850.7</ele>
        <time>2021-12-09T08:40:14.000Z</time>
      </trkpt>
      <trkpt lat="47.99531" lon="6.99596">
        <ele>852.9</ele>
        <time>2021-12-09T08:40:24.000Z</time>
      </trkpt>
      <trkpt lat="47.99524" lon="6.99588">
        <ele>854.2</ele>
        <time>2021-12-09T08:40:38.000Z</time>
      </trkpt>
      <trkpt lat="47.99516" lon="6.9958">
        <ele>855</ele>
        <time>2021-12-09T08:40:48.000Z</time>
      </trkpt>
      <trkpt lat="47.99511" lon="6.99568">
        <ele>854.6</ele>
        <time>2021-12-09T08:42:09.000Z</time>
      </trkpt>
      <trkpt lat="47.99503" lon="6.99561">
        <ele>856.3</ele>
        <time>2021-12-09T08:42:20.000Z</time>
      </trkpt>
      <trkpt lat="47.99496" lon="6.99553">
        <ele>857.5</ele>
        <time>2021-12-09T08:42:30.000Z</time>
      </trkpt>
      <trkpt lat="47.99488" lon="6.99545">
        <ele>858</ele>
        <time>2021-12-09T08:43:47.000Z</time>
      </trkpt>
      <trkpt lat="47.99477" lon="6.99543">
        <ele>860.4</ele>
        <time>2021-12-09T08:43:56.000Z</time>
      </trkpt>
      <trkpt lat="47.99468" lon="6.9954">
        <ele>862</ele>
        <time>2021-12-09T08:44:05.000Z</time>
      </trkpt>
      <trkpt lat="47.99459" lon="6.99535">
        <ele>863.1</ele>
        <time>2021-12-09T08:44:14.000Z</time>
      </trkpt>
      <trkpt lat="47.99452" lon="6.99525">
        <ele>863.3</ele>
        <time>2021-12-09T08:44:29.000Z</time>
      </trkpt>
      <trkpt lat="47.99442" lon="6.99522">
        <ele>864.9</ele>
        <time>2021-12-09T08:44:39.000Z</time>
      </trkpt>
      <trkpt lat="47.99434" lon="6.99515">
        <ele>865.9</ele>
        <time>2021-12-09T08:44:49.000Z</time>
      </trkpt>
      <trkpt lat="47.99425" lon="6.9951">
        <ele>867.2</ele>
        <time>2021-12-09T08:45:01.000Z</time>
      </trkpt>
      <trkpt lat="47.99419" lon="6.995">
        <ele>867.5</ele>
        <time>2021-12-09T08:45:10.000Z</time>
      </trkpt>
      <trkpt lat="47.99411" lon="6.99493">
        <ele>868.6</ele>
        <time>2021-12-09T08:45:19.000Z</time>
      </trkpt>
      <trkpt lat="47.99403" lon="6.99488">
        <ele>870.3</ele>
        <time>2021-12-09T08:45:29.000Z</time>
      </trkpt>
      <trkpt lat="47.99394" lon="6.99483">
        <ele>871.9</ele>
        <time>2021-12-09T08:45:42.000Z</time>
      </trkpt>
      <trkpt lat="47.99388" lon="6.99473">
        <ele>872.3</ele>
        <time>2021-12-09T08:45:54.000Z</time>
      </trkpt>
      <trkpt lat="47.9938" lon="6.99465">
        <ele>873.4</ele>
        <time>2021-12-09T08:46:06.000Z</time>
      </trkpt>
      <trkpt lat="47.99371" lon="6.9946">
        <ele>874.9</ele>
        <time>2021-12-09T08:46:16.000Z</time>
      </trkpt>
      <trkpt lat="47.99363" lon="6.99451">
        <ele>875.5</ele>
        <time>2021-12-09T08:46:27.000Z</time>
      </trkpt>
      <trkpt lat="47.99354" lon="6.99446">
        <ele>877</ele>
        <time>2021-12-09T08:46:39.000Z</time>
      </trkpt>
      <trkpt lat="47.99346" lon="6.99437">
        <ele>877.8</ele>
        <time>2021-12-09T08:46:53.000Z</time>
      </trkpt>
      <trkpt lat="47.99338" lon="6.9943">
        <ele>878.7</ele>
        <time>2021-12-09T08:47:10.000Z</time>
      </trkpt>
      <trkpt lat="47.99331" lon="6.9942">
        <ele>879.1</ele>
        <time>2021-12-09T08:47:18.000Z</time>
      </trkpt>
      <trkpt lat="47.99324" lon="6.9941">
        <ele>878.7</ele>
        <time>2021-12-09T08:47:27.000Z</time>
      </trkpt>
      <trkpt lat="47.99316" lon="6.99403">
        <ele>879.5</ele>
        <time>2021-12-09T08:47:38.000Z</time>
      </trkpt>
      <trkpt lat="47.99306" lon="6.99399">
        <ele>881.3</ele>
        <time>2021-12-09T08:47:47.000Z</time>
      </trkpt>
      <trkpt lat="47.99302" lon="6.99387">
        <ele>880.8</ele>
        <time>2021-12-09T08:48:04.000Z</time>
      </trkpt>
      <trkpt lat="47.99293" lon="6.99381">
        <ele>882.5</ele>
        <time>2021-12-09T08:48:14.000Z</time>
      </trkpt>
      <trkpt lat="47.99284" lon="6.99377">
        <ele>884.2</ele>
        <time>2021-12-09T08:48:24.000Z</time>
      </trkpt>
      <trkpt lat="47.99276" lon="6.9937">
        <ele>885.5</ele>
        <time>2021-12-09T08:48:37.000Z</time>
      </trkpt>
      <trkpt lat="47.9927" lon="6.99359">
        <ele>886</ele>
        <time>2021-12-09T08:48:48.000Z</time>
      </trkpt>
      <trkpt lat="47.99263" lon="6.99351">
        <ele>887.3</ele>
        <time>2021-12-09T08:49:00.000Z</time>
      </trkpt>
      <trkpt lat="47.99256" lon="6.99342">
        <ele>888.4</ele>
        <time>2021-12-09T08:49:11.000Z</time>
      </trkpt>
      <trkpt lat="47.99246" lon="6.99338">
        <ele>890.2</ele>
        <time>2021-12-09T08:49:22.000Z</time>
      </trkpt>
      <trkpt lat="47.99239" lon="6.99329">
        <ele>890.8</ele>
        <time>2021-12-09T08:49:31.000Z</time>
      </trkpt>
      <trkpt lat="47.99231" lon="6.9932">
        <ele>891.8</ele>
        <time>2021-12-09T08:49:49.000Z</time>
      </trkpt>
      <trkpt lat="47.99223" lon="6.99315">
        <ele>893.2</ele>
        <time>2021-12-09T08:49:57.000Z</time>
      </trkpt>
      <trkpt lat="47.99214" lon="6.99311">
        <ele>894.5</ele>
        <time>2021-12-09T08:50:06.000Z</time>
      </trkpt>
      <trkpt lat="47.99208" lon="6.99301">
        <ele>895</ele>
        <time>2021-12-09T08:50:18.000Z</time>
      </trkpt>
      <trkpt lat="47.99201" lon="6.9929">
        <ele>896</ele>
        <time>2021-12-09T08:50:29.000Z</time>
      </trkpt>
      <trkpt lat="47.99194" lon="6.9928">
        <ele>897</ele>
        <time>2021-12-09T08:50:41.000Z</time>
      </trkpt>
      <trkpt lat="47.99184" lon="6.99279">
        <ele>898.5</ele>
        <time>2021-12-09T08:50:53.000Z</time>
      </trkpt>
      <trkpt lat="47.99175" lon="6.99281">
        <ele>899.9</ele>
        <time>2021-12-09T08:51:04.000Z</time>
      </trkpt>
      <trkpt lat="47.99166" lon="6.99284">
        <ele>901.3</ele>
        <time>2021-12-09T08:51:14.000Z</time>
      </trkpt>
      <trkpt lat="47.99158" lon="6.99293">
        <ele>903</ele>
        <time>2021-12-09T08:51:32.000Z</time>
      </trkpt>
      <trkpt lat="47.99161" lon="6.99306">
        <ele>903.2</ele>
        <time>2021-12-09T08:51:45.000Z</time>
      </trkpt>
      <trkpt lat="47.99165" lon="6.99318">
        <ele>904.1</ele>
        <time>2021-12-09T08:51:57.000Z</time>
      </trkpt>
      <trkpt lat="47.99173" lon="6.99328">
        <ele>904.1</ele>
        <time>2021-12-09T08:52:09.000Z</time>
      </trkpt>
      <trkpt lat="47.99181" lon="6.99337">
        <ele>904.4</ele>
        <time>2021-12-09T08:52:18.000Z</time>
      </trkpt>
      <trkpt lat="47.99187" lon="6.99348">
        <ele>905.9</ele>
        <time>2021-12-09T08:52:28.000Z</time>
      </trkpt>
      <trkpt lat="47.99194" lon="6.99359">
        <ele>907.5</ele>
        <time>2021-12-09T08:52:38.000Z</time>
      </trkpt>
      <trkpt lat="47.992" lon="6.99369">
        <ele>906.8</ele>
        <time>2021-12-09T08:52:46.000Z</time>
      </trkpt>
      <trkpt lat="47.99205" lon="6.99381">
        <ele>906.4</ele>
        <time>2021-12-09T08:52:55.000Z</time>
      </trkpt>
      <trkpt lat="47.99208" lon="6.99395">
        <ele>907.5</ele>
        <time>2021-12-09T08:53:08.000Z</time>
      </trkpt>
      <trkpt lat="47.99201" lon="6.99405">
        <ele>911</ele>
        <time>2021-12-09T08:53:29.000Z</time>
      </trkpt>
      <trkpt lat="47.99193" lon="6.99395">
        <ele>911.7</ele>
        <time>2021-12-09T08:54:02.000Z</time>
      </trkpt>
      <trkpt lat="47.9918" lon="6.99386">
        <ele>914.3</ele>
        <time>2021-12-09T08:54:07.000Z</time>
      </trkpt>
      <trkpt lat="47.99173" lon="6.99376">
        <ele>914.1</ele>
        <time>2021-12-09T08:54:12.000Z</time>
      </trkpt>
      <trkpt lat="47.99172" lon="6.99362">
        <ele>911.5</ele>
        <time>2021-12-09T08:54:21.000Z</time>
      </trkpt>
      <trkpt lat="47.99167" lon="6.99349">
        <ele>909.2</ele>
        <time>2021-12-09T08:54:34.000Z</time>
      </trkpt>
      <trkpt lat="47.9916" lon="6.9934">
        <ele>909.4</ele>
        <time>2021-12-09T08:54:45.000Z</time>
      </trkpt>
      <trkpt lat="47.99151" lon="6.99335">
        <ele>910.8</ele>
        <time>2021-12-09T08:54:57.000Z</time>
      </trkpt>
      <trkpt lat="47.99143" lon="6.99329">
        <ele>912.1</ele>
        <time>2021-12-09T08:55:04.000Z</time>
      </trkpt>
      <trkpt lat="47.99135" lon="6.99322">
        <ele>912.4</ele>
        <time>2021-12-09T08:55:11.000Z</time>
      </trkpt>
      <trkpt lat="47.99127" lon="6.99312">
        <ele>912.2</ele>
        <time>2021-12-09T08:55:22.000Z</time>
      </trkpt>
      <trkpt lat="47.99119" lon="6.99304">
        <ele>912.7</ele>
        <time>2021-12-09T08:55:32.000Z</time>
      </trkpt>
      <trkpt lat="47.99111" lon="6.99296">
        <ele>913.3</ele>
        <time>2021-12-09T08:55:42.000Z</time>
      </trkpt>
      <trkpt lat="47.99103" lon="6.99291">
        <ele>914.6</ele>
        <time>2021-12-09T08:55:51.000Z</time>
      </trkpt>
      <trkpt lat="47.99094" lon="6.99285">
        <ele>915.6</ele>
        <time>2021-12-09T08:56:01.000Z</time>
      </trkpt>
      <trkpt lat="47.99086" lon="6.99275">
        <ele>915.6</ele>
        <time>2021-12-09T08:56:09.000Z</time>
      </trkpt>
      <trkpt lat="47.99079" lon="6.99266">
        <ele>916.2</ele>
        <time>2021-12-09T08:56:17.000Z</time>
      </trkpt>
      <trkpt lat="47.99072" lon="6.99257">
        <ele>917</ele>
        <time>2021-12-09T08:56:30.000Z</time>
      </trkpt>
      <trkpt lat="47.99067" lon="6.99245">
        <ele>916.7</ele>
        <time>2021-12-09T08:56:43.000Z</time>
      </trkpt>
      <trkpt lat="47.99059" lon="6.99237">
        <ele>918.5</ele>
        <time>2021-12-09T08:57:01.000Z</time>
      </trkpt>
      <trkpt lat="47.99052" lon="6.99228">
        <ele>918.3</ele>
        <time>2021-12-09T08:57:12.000Z</time>
      </trkpt>
      <trkpt lat="47.99044" lon="6.99222">
        <ele>919.3</ele>
        <time>2021-12-09T08:57:21.000Z</time>
      </trkpt>
      <trkpt lat="47.99035" lon="6.99216">
        <ele>920.6</ele>
        <time>2021-12-09T08:57:30.000Z</time>
      </trkpt>
      <trkpt lat="47.99025" lon="6.99214">
        <ele>922.4</ele>
        <time>2021-12-09T08:57:41.000Z</time>
      </trkpt>
      <trkpt lat="47.99016" lon="6.99208">
        <ele>923.3</ele>
        <time>2021-12-09T08:57:51.000Z</time>
      </trkpt>
      <trkpt lat="47.99008" lon="6.992">
        <ele>923.7</ele>
        <time>2021-12-09T08:58:02.000Z</time>
      </trkpt>
      <trkpt lat="47.98999" lon="6.99196">
        <ele>925.3</ele>
        <time>2021-12-09T08:58:15.000Z</time>
      </trkpt>
      <trkpt lat="47.9899" lon="6.99194">
        <ele>926.3</ele>
        <time>2021-12-09T08:58:24.000Z</time>
      </trkpt>
      <trkpt lat="47.98982" lon="6.9919">
        <ele>926.6</ele>
        <time>2021-12-09T08:58:37.000Z</time>
      </trkpt>
      <trkpt lat="47.98973" lon="6.99186">
        <ele>927.2</ele>
        <time>2021-12-09T08:58:49.000Z</time>
      </trkpt>
      <trkpt lat="47.98963" lon="6.99186">
        <ele>928.3</ele>
        <time>2021-12-09T08:59:01.000Z</time>
      </trkpt>
      <trkpt lat="47.98954" lon="6.99183">
        <ele>929.3</ele>
        <time>2021-12-09T08:59:10.000Z</time>
      </trkpt>
      <trkpt lat="47.98944" lon="6.99183">
        <ele>930.6</ele>
        <time>2021-12-09T08:59:25.000Z</time>
      </trkpt>
      <trkpt lat="47.98936" lon="6.99179">
        <ele>931.1</ele>
        <time>2021-12-09T08:59:33.000Z</time>
      </trkpt>
      <trkpt lat="47.98926" lon="6.99178">
        <ele>931.7</ele>
        <time>2021-12-09T08:59:44.000Z</time>
      </trkpt>
      <trkpt lat="47.98917" lon="6.99178">
        <ele>932.4</ele>
        <time>2021-12-09T08:59:55.000Z</time>
      </trkpt>
      <trkpt lat="47.98908" lon="6.99176">
        <ele>933.4</ele>
        <time>2021-12-09T09:00:06.000Z</time>
      </trkpt>
      <trkpt lat="47.98898" lon="6.99178">
        <ele>934.6</ele>
        <time>2021-12-09T09:00:20.000Z</time>
      </trkpt>
      <trkpt lat="47.98889" lon="6.99176">
        <ele>935.6</ele>
        <time>2021-12-09T09:00:29.000Z</time>
      </trkpt>
      <trkpt lat="47.98883" lon="6.99165">
        <ele>936</ele>
        <time>2021-12-09T09:00:40.000Z</time>
      </trkpt>
      <trkpt lat="47.98876" lon="6.99158">
        <ele>937.2</ele>
        <time>2021-12-09T09:00:48.000Z</time>
      </trkpt>
      <trkpt lat="47.98872" lon="6.99145">
        <ele>937.5</ele>
        <time>2021-12-09T09:00:57.000Z</time>
      </trkpt>
      <trkpt lat="47.98864" lon="6.99139">
        <ele>938.5</ele>
        <time>2021-12-09T09:01:07.000Z</time>
      </trkpt>
      <trkpt lat="47.98857" lon="6.9913">
        <ele>937.8</ele>
        <time>2021-12-09T09:01:17.000Z</time>
      </trkpt>
      <trkpt lat="47.98847" lon="6.99127">
        <ele>938.3</ele>
        <time>2021-12-09T09:01:27.000Z</time>
      </trkpt>
      <trkpt lat="47.98838" lon="6.99131">
        <ele>939.8</ele>
        <time>2021-12-09T09:01:40.000Z</time>
      </trkpt>
      <trkpt lat="47.9883" lon="6.99123">
        <ele>939.9</ele>
        <time>2021-12-09T09:01:54.000Z</time>
      </trkpt>
      <trkpt lat="47.98821" lon="6.99121">
        <ele>941.4</ele>
        <time>2021-12-09T09:02:03.000Z</time>
      </trkpt>
      <trkpt lat="47.98812" lon="6.99128">
        <ele>943.5</ele>
        <time>2021-12-09T09:02:20.000Z</time>
      </trkpt>
      <trkpt lat="47.98803" lon="6.99133">
        <ele>945.3</ele>
        <time>2021-12-09T09:02:30.000Z</time>
      </trkpt>
      <trkpt lat="47.98794" lon="6.99138">
        <ele>947.4</ele>
        <time>2021-12-09T09:02:44.000Z</time>
      </trkpt>
      <trkpt lat="47.98784" lon="6.99149">
        <ele>951.5</ele>
        <time>2021-12-09T09:03:20.000Z</time>
      </trkpt>
      <trkpt lat="47.98777" lon="6.99157">
        <ele>954.6</ele>
        <time>2021-12-09T09:03:32.000Z</time>
      </trkpt>
      <trkpt lat="47.98771" lon="6.99172">
        <ele>958.4</ele>
        <time>2021-12-09T09:03:59.000Z</time>
      </trkpt>
      <trkpt lat="47.98761" lon="6.99173">
        <ele>960.4</ele>
        <time>2021-12-09T09:04:10.000Z</time>
      </trkpt>
      <trkpt lat="47.98753" lon="6.99165">
        <ele>960.8</ele>
        <time>2021-12-09T09:04:21.000Z</time>
      </trkpt>
      <trkpt lat="47.98744" lon="6.99165">
        <ele>961.8</ele>
        <time>2021-12-09T09:04:33.000Z</time>
      </trkpt>
      <trkpt lat="47.98734" lon="6.99165">
        <ele>962.3</ele>
        <time>2021-12-09T09:04:43.000Z</time>
      </trkpt>
      <trkpt lat="47.98726" lon="6.99174">
        <ele>963.7</ele>
        <time>2021-12-09T09:04:53.000Z</time>
      </trkpt>
      <trkpt lat="47.98719" lon="6.99185">
        <ele>965.1</ele>
        <time>2021-12-09T09:05:01.000Z</time>
      </trkpt>
      <trkpt lat="47.98723" lon="6.99208">
        <ele>967.4</ele>
        <time>2021-12-09T09:05:28.000Z</time>
      </trkpt>
      <trkpt lat="47.98712" lon="6.99206">
        <ele>967.6</ele>
        <time>2021-12-09T09:05:34.000Z</time>
      </trkpt>
      <trkpt lat="47.98701" lon="6.99204">
        <ele>967.8</ele>
        <time>2021-12-09T09:05:48.000Z</time>
      </trkpt>
      <trkpt lat="47.98692" lon="6.99204">
        <ele>968.2</ele>
        <time>2021-12-09T09:06:00.000Z</time>
      </trkpt>
      <trkpt lat="47.98685" lon="6.99213">
        <ele>969.7</ele>
        <time>2021-12-09T09:06:07.000Z</time>
      </trkpt>
      <trkpt lat="47.98678" lon="6.99222">
        <ele>971.2</ele>
        <time>2021-12-09T09:06:23.000Z</time>
      </trkpt>
      <trkpt lat="47.98669" lon="6.99225">
        <ele>972.4</ele>
        <time>2021-12-09T09:06:37.000Z</time>
      </trkpt>
      <trkpt lat="47.98659" lon="6.99223">
        <ele>972.9</ele>
        <time>2021-12-09T09:06:49.000Z</time>
      </trkpt>
      <trkpt lat="47.9865" lon="6.99221">
        <ele>973.6</ele>
        <time>2021-12-09T09:06:59.000Z</time>
      </trkpt>
      <trkpt lat="47.9864" lon="6.99222">
        <ele>974.8</ele>
        <time>2021-12-09T09:07:09.000Z</time>
      </trkpt>
      <trkpt lat="47.98633" lon="6.99213">
        <ele>975.2</ele>
        <time>2021-12-09T09:07:20.000Z</time>
      </trkpt>
      <trkpt lat="47.98625" lon="6.99207">
        <ele>975.8</ele>
        <time>2021-12-09T09:07:36.000Z</time>
      </trkpt>
      <trkpt lat="47.98616" lon="6.99208">
        <ele>977.5</ele>
        <time>2021-12-09T09:07:47.000Z</time>
      </trkpt>
      <trkpt lat="47.98606" lon="6.99207">
        <ele>978.6</ele>
        <time>2021-12-09T09:07:58.000Z</time>
      </trkpt>
      <trkpt lat="47.98597" lon="6.99208">
        <ele>980.1</ele>
        <time>2021-12-09T09:08:11.000Z</time>
      </trkpt>
      <trkpt lat="47.98588" lon="6.99205">
        <ele>980.6</ele>
        <time>2021-12-09T09:08:22.000Z</time>
      </trkpt>
      <trkpt lat="47.98578" lon="6.99206">
        <ele>981.9</ele>
        <time>2021-12-09T09:08:36.000Z</time>
      </trkpt>
      <trkpt lat="47.98569" lon="6.99209">
        <ele>983.9</ele>
        <time>2021-12-09T09:08:50.000Z</time>
      </trkpt>
      <trkpt lat="47.9856" lon="6.99207">
        <ele>984.7</ele>
        <time>2021-12-09T09:09:01.000Z</time>
      </trkpt>
      <trkpt lat="47.9855" lon="6.99208">
        <ele>986.5</ele>
        <time>2021-12-09T09:09:12.000Z</time>
      </trkpt>
      <trkpt lat="47.98541" lon="6.99206">
        <ele>987.6</ele>
        <time>2021-12-09T09:09:25.000Z</time>
      </trkpt>
      <trkpt lat="47.98533" lon="6.99199">
        <ele>987.4</ele>
        <time>2021-12-09T09:09:38.000Z</time>
      </trkpt>
      <trkpt lat="47.98524" lon="6.99193">
        <ele>987.7</ele>
        <time>2021-12-09T09:09:50.000Z</time>
      </trkpt>
      <trkpt lat="47.98515" lon="6.99187">
        <ele>989</ele>
        <time>2021-12-09T09:10:04.000Z</time>
      </trkpt>
      <trkpt lat="47.98506" lon="6.99181">
        <ele>989.7</ele>
        <time>2021-12-09T09:10:15.000Z</time>
      </trkpt>
      <trkpt lat="47.98498" lon="6.99178">
        <ele>991</ele>
        <time>2021-12-09T09:10:25.000Z</time>
      </trkpt>
      <trkpt lat="47.98489" lon="6.99175">
        <ele>993.1</ele>
        <time>2021-12-09T09:10:37.000Z</time>
      </trkpt>
      <trkpt lat="47.9848" lon="6.99171">
        <ele>994.6</ele>
        <time>2021-12-09T09:10:50.000Z</time>
      </trkpt>
      <trkpt lat="47.98473" lon="6.99161">
        <ele>994.3</ele>
        <time>2021-12-09T09:11:06.000Z</time>
      </trkpt>
      <trkpt lat="47.98464" lon="6.99156">
        <ele>994.7</ele>
        <time>2021-12-09T09:11:18.000Z</time>
      </trkpt>
      <trkpt lat="47.98455" lon="6.99158">
        <ele>997.1</ele>
        <time>2021-12-09T09:11:29.000Z</time>
      </trkpt>
      <trkpt lat="47.98445" lon="6.99164">
        <ele>1000.1</ele>
        <time>2021-12-09T09:11:39.000Z</time>
      </trkpt>
      <trkpt lat="47.98454" lon="6.99153">
        <ele>995.8</ele>
        <time>2021-12-09T09:12:11.000Z</time>
      </trkpt>
      <trkpt lat="47.98446" lon="6.9916">
        <ele>999.1</ele>
        <time>2021-12-09T09:13:20.000Z</time>
      </trkpt>
      <trkpt lat="47.98439" lon="6.99152">
        <ele>999.4</ele>
        <time>2021-12-09T09:13:29.000Z</time>
      </trkpt>
      <trkpt lat="47.98431" lon="6.99145">
        <ele>999.8</ele>
        <time>2021-12-09T09:13:38.000Z</time>
      </trkpt>
      <trkpt lat="47.98423" lon="6.99137">
        <ele>999.9</ele>
        <time>2021-12-09T09:13:48.000Z</time>
      </trkpt>
      <trkpt lat="47.98413" lon="6.99131">
        <ele>1001.1</ele>
        <time>2021-12-09T09:14:05.000Z</time>
      </trkpt>
      <trkpt lat="47.98405" lon="6.99127">
        <ele>1003.2</ele>
        <time>2021-12-09T09:14:19.000Z</time>
      </trkpt>
      <trkpt lat="47.98397" lon="6.99119">
        <ele>1003.6</ele>
        <time>2021-12-09T09:14:33.000Z</time>
      </trkpt>
      <trkpt lat="47.98388" lon="6.99113">
        <ele>1005</ele>
        <time>2021-12-09T09:14:46.000Z</time>
      </trkpt>
      <trkpt lat="47.98379" lon="6.99109">
        <ele>1007.1</ele>
        <time>2021-12-09T09:14:59.000Z</time>
      </trkpt>
      <trkpt lat="47.98371" lon="6.99102">
        <ele>1008.5</ele>
        <time>2021-12-09T09:15:09.000Z</time>
      </trkpt>
      <trkpt lat="47.98362" lon="6.99097">
        <ele>1010.2</ele>
        <time>2021-12-09T09:15:20.000Z</time>
      </trkpt>
      <trkpt lat="47.98353" lon="6.99093">
        <ele>1012</ele>
        <time>2021-12-09T09:15:31.000Z</time>
      </trkpt>
      <trkpt lat="47.98344" lon="6.9909">
        <ele>1014.6</ele>
        <time>2021-12-09T09:15:41.000Z</time>
      </trkpt>
      <trkpt lat="47.98336" lon="6.99081">
        <ele>1014.7</ele>
        <time>2021-12-09T09:15:55.000Z</time>
      </trkpt>
      <trkpt lat="47.98327" lon="6.99078">
        <ele>1017</ele>
        <time>2021-12-09T09:16:05.000Z</time>
      </trkpt>
      <trkpt lat="47.98318" lon="6.99075">
        <ele>1019.4</ele>
        <time>2021-12-09T09:16:20.000Z</time>
      </trkpt>
      <trkpt lat="47.98309" lon="6.99072">
        <ele>1022.1</ele>
        <time>2021-12-09T09:16:38.000Z</time>
      </trkpt>
      <trkpt lat="47.983" lon="6.99067">
        <ele>1024.2</ele>
        <time>2021-12-09T09:16:53.000Z</time>
      </trkpt>
      <trkpt lat="47.98291" lon="6.99064">
        <ele>1027.1</ele>
        <time>2021-12-09T09:17:09.000Z</time>
      </trkpt>
      <trkpt lat="47.98282" lon="6.99063">
        <ele>1030.3</ele>
        <time>2021-12-09T09:17:22.000Z</time>
      </trkpt>
      <trkpt lat="47.98273" lon="6.99059">
        <ele>1032.8</ele>
        <time>2021-12-09T09:17:39.000Z</time>
      </trkpt>
      <trkpt lat="47.98263" lon="6.99059">
        <ele>1036.8</ele>
        <time>2021-12-09T09:17:56.000Z</time>
      </trkpt>
      <trkpt lat="47.98263" lon="6.99073">
        <ele>1040.7</ele>
        <time>2021-12-09T09:18:32.000Z</time>
      </trkpt>
      <trkpt lat="47.9827" lon="6.99083">
        <ele>1041</ele>
        <time>2021-12-09T09:18:47.000Z</time>
      </trkpt>
      <trkpt lat="47.98277" lon="6.99092">
        <ele>1041.3</ele>
        <time>2021-12-09T09:19:01.000Z</time>
      </trkpt>
      <trkpt lat="47.98285" lon="6.99099">
        <ele>1040.8</ele>
        <time>2021-12-09T09:19:13.000Z</time>
      </trkpt>
      <trkpt lat="47.98289" lon="6.99112">
        <ele>1043.7</ele>
        <time>2021-12-09T09:19:27.000Z</time>
      </trkpt>
      <trkpt lat="47.98297" lon="6.99121">
        <ele>1043.6</ele>
        <time>2021-12-09T09:19:39.000Z</time>
      </trkpt>
      <trkpt lat="47.98306" lon="6.99137">
        <ele>1046</ele>
        <time>2021-12-09T09:20:01.000Z</time>
      </trkpt>
      <trkpt lat="47.98312" lon="6.99147">
        <ele>1048.2</ele>
        <time>2021-12-09T09:20:13.000Z</time>
      </trkpt>
      <trkpt lat="47.98319" lon="6.99159">
        <ele>1050.3</ele>
        <time>2021-12-09T09:20:26.000Z</time>
      </trkpt>
      <trkpt lat="47.98324" lon="6.9917">
        <ele>1053.3</ele>
        <time>2021-12-09T09:20:40.000Z</time>
      </trkpt>
      <trkpt lat="47.98331" lon="6.9918">
        <ele>1054.8</ele>
        <time>2021-12-09T09:20:50.000Z</time>
      </trkpt>
      <trkpt lat="47.98337" lon="6.9919">
        <ele>1057.4</ele>
        <time>2021-12-09T09:21:07.000Z</time>
      </trkpt>
      <trkpt lat="47.98345" lon="6.99199">
        <ele>1057.8</ele>
        <time>2021-12-09T09:21:21.000Z</time>
      </trkpt>
      <trkpt lat="47.98353" lon="6.99206">
        <ele>1057.2</ele>
        <time>2021-12-09T09:21:32.000Z</time>
      </trkpt>
      <trkpt lat="47.98357" lon="6.99218">
        <ele>1061.2</ele>
        <time>2021-12-09T09:21:45.000Z</time>
      </trkpt>
      <trkpt lat="47.98363" lon="6.99228">
        <ele>1062.1</ele>
        <time>2021-12-09T09:21:59.000Z</time>
      </trkpt>
      <trkpt lat="47.98368" lon="6.99239">
        <ele>1064.2</ele>
        <time>2021-12-09T09:22:13.000Z</time>
      </trkpt>
      <trkpt lat="47.98374" lon="6.9925">
        <ele>1065.2</ele>
        <time>2021-12-09T09:22:27.000Z</time>
      </trkpt>
      <trkpt lat="47.98379" lon="6.99261">
        <ele>1066</ele>
        <time>2021-12-09T09:22:40.000Z</time>
      </trkpt>
      <trkpt lat="47.98384" lon="6.99273">
        <ele>1067</ele>
        <time>2021-12-09T09:22:52.000Z</time>
      </trkpt>
      <trkpt lat="47.98389" lon="6.99284">
        <ele>1067.8</ele>
        <time>2021-12-09T09:23:06.000Z</time>
      </trkpt>
      <trkpt lat="47.98393" lon="6.99299">
        <ele>1071</ele>
        <time>2021-12-09T09:23:26.000Z</time>
      </trkpt>
      <trkpt lat="47.98399" lon="6.9931">
        <ele>1072.7</ele>
        <time>2021-12-09T09:23:40.000Z</time>
      </trkpt>
      <trkpt lat="47.98413" lon="6.99327">
        <ele>1074.7</ele>
        <time>2021-12-09T09:24:09.000Z</time>
      </trkpt>
      <trkpt lat="47.9842" lon="6.99336">
        <ele>1075.6</ele>
        <time>2021-12-09T09:24:24.000Z</time>
      </trkpt>
      <trkpt lat="47.98427" lon="6.99344">
        <ele>1076.7</ele>
        <time>2021-12-09T09:24:39.000Z</time>
      </trkpt>
      <trkpt lat="47.98434" lon="6.99353">
        <ele>1078.1</ele>
        <time>2021-12-09T09:24:52.000Z</time>
      </trkpt>
      <trkpt lat="47.98443" lon="6.99361">
        <ele>1078.5</ele>
        <time>2021-12-09T09:25:06.000Z</time>
      </trkpt>
      <trkpt lat="47.98449" lon="6.99371">
        <ele>1080.4</ele>
        <time>2021-12-09T09:25:18.000Z</time>
      </trkpt>
      <trkpt lat="47.98458" lon="6.99378">
        <ele>1080.7</ele>
        <time>2021-12-09T09:27:44.000Z</time>
      </trkpt>
      <trkpt lat="47.98462" lon="6.99391">
        <ele>1085.1</ele>
        <time>2021-12-09T09:27:52.000Z</time>
      </trkpt>
      <trkpt lat="47.98469" lon="6.99398">
        <ele>1085.9</ele>
        <time>2021-12-09T09:28:05.000Z</time>
      </trkpt>
      <trkpt lat="47.98476" lon="6.99408">
        <ele>1087.7</ele>
        <time>2021-12-09T09:28:24.000Z</time>
      </trkpt>
      <trkpt lat="47.98482" lon="6.99418">
        <ele>1089.4</ele>
        <time>2021-12-09T09:28:37.000Z</time>
      </trkpt>
      <trkpt lat="47.9849" lon="6.99425">
        <ele>1089.4</ele>
        <time>2021-12-09T09:28:48.000Z</time>
      </trkpt>
      <trkpt lat="47.98493" lon="6.99438">
        <ele>1094</ele>
        <time>2021-12-09T09:29:03.000Z</time>
      </trkpt>
      <trkpt lat="47.98499" lon="6.99448">
        <ele>1095.5</ele>
        <time>2021-12-09T09:29:15.000Z</time>
      </trkpt>
      <trkpt lat="47.98506" lon="6.99458">
        <ele>1097.3</ele>
        <time>2021-12-09T09:29:34.000Z</time>
      </trkpt>
      <trkpt lat="47.98515" lon="6.99464">
        <ele>1097</ele>
        <time>2021-12-09T09:29:53.000Z</time>
      </trkpt>
      <trkpt lat="47.98521" lon="6.99476">
        <ele>1099.4</ele>
        <time>2021-12-09T09:30:07.000Z</time>
      </trkpt>
      <trkpt lat="47.98526" lon="6.99487">
        <ele>1102</ele>
        <time>2021-12-09T09:30:19.000Z</time>
      </trkpt>
      <trkpt lat="47.98532" lon="6.99498">
        <ele>1103.6</ele>
        <time>2021-12-09T09:30:31.000Z</time>
      </trkpt>
      <trkpt lat="47.98542" lon="6.99512">
        <ele>1105.3</ele>
        <time>2021-12-09T09:30:56.000Z</time>
      </trkpt>
      <trkpt lat="47.98551" lon="6.99522">
        <ele>1105.5</ele>
        <time>2021-12-09T09:31:11.000Z</time>
      </trkpt>
      <trkpt lat="47.98557" lon="6.99536">
        <ele>1107.8</ele>
        <time>2021-12-09T09:31:27.000Z</time>
      </trkpt>
      <trkpt lat="47.98548" lon="6.99535">
        <ele>1110.8</ele>
        <time>2021-12-09T09:31:55.000Z</time>
      </trkpt>
      <trkpt lat="47.9854" lon="6.99528">
        <ele>1111.7</ele>
        <time>2021-12-09T09:32:09.000Z</time>
      </trkpt>
      <trkpt lat="47.98532" lon="6.99521">
        <ele>1112.2</ele>
        <time>2021-12-09T09:40:08.000Z</time>
      </trkpt>
      <trkpt lat="47.98523" lon="6.9952">
        <ele>1114.8</ele>
        <time>2021-12-09T09:40:23.000Z</time>
      </trkpt>
      <trkpt lat="47.98515" lon="6.99513">
        <ele>1114.7</ele>
        <time>2021-12-09T09:40:33.000Z</time>
      </trkpt>
      <trkpt lat="47.98507" lon="6.99505">
        <ele>1114.3</ele>
        <time>2021-12-09T09:40:42.000Z</time>
      </trkpt>
      <trkpt lat="47.98498" lon="6.995">
        <ele>1115.3</ele>
        <time>2021-12-09T09:40:57.000Z</time>
      </trkpt>
      <trkpt lat="47.9849" lon="6.99494">
        <ele>1116</ele>
        <time>2021-12-09T09:41:10.000Z</time>
      </trkpt>
      <trkpt lat="47.98481" lon="6.99491">
        <ele>1117.4</ele>
        <time>2021-12-09T09:41:20.000Z</time>
      </trkpt>
      <trkpt lat="47.98472" lon="6.99487">
        <ele>1118.6</ele>
        <time>2021-12-09T09:41:31.000Z</time>
      </trkpt>
      <trkpt lat="47.98463" lon="6.99483">
        <ele>1121</ele>
        <time>2021-12-09T09:41:44.000Z</time>
      </trkpt>
      <trkpt lat="47.98455" lon="6.99477">
        <ele>1122</ele>
        <time>2021-12-09T09:42:36.000Z</time>
      </trkpt>
      <trkpt lat="47.98446" lon="6.99473">
        <ele>1123.4</ele>
        <time>2021-12-09T09:42:46.000Z</time>
      </trkpt>
      <trkpt lat="47.98438" lon="6.99467">
        <ele>1124.1</ele>
        <time>2021-12-09T09:42:57.000Z</time>
      </trkpt>
      <trkpt lat="47.98429" lon="6.99461">
        <ele>1125.1</ele>
        <time>2021-12-09T09:43:09.000Z</time>
      </trkpt>
      <trkpt lat="47.9842" lon="6.99458">
        <ele>1126.8</ele>
        <time>2021-12-09T09:43:21.000Z</time>
      </trkpt>
      <trkpt lat="47.98411" lon="6.99452">
        <ele>1127.7</ele>
        <time>2021-12-09T09:43:34.000Z</time>
      </trkpt>
      <trkpt lat="47.98403" lon="6.99445">
        <ele>1127.7</ele>
        <time>2021-12-09T09:43:47.000Z</time>
      </trkpt>
      <trkpt lat="47.98394" lon="6.99439">
        <ele>1128.3</ele>
        <time>2021-12-09T09:43:59.000Z</time>
      </trkpt>
      <trkpt lat="47.98385" lon="6.99437">
        <ele>1130</ele>
        <time>2021-12-09T09:44:11.000Z</time>
      </trkpt>
      <trkpt lat="47.98376" lon="6.99435">
        <ele>1131.9</ele>
        <time>2021-12-09T09:44:24.000Z</time>
      </trkpt>
      <trkpt lat="47.98367" lon="6.99431">
        <ele>1132.9</ele>
        <time>2021-12-09T09:44:36.000Z</time>
      </trkpt>
      <trkpt lat="47.98359" lon="6.99423">
        <ele>1132.9</ele>
        <time>2021-12-09T09:44:51.000Z</time>
      </trkpt>
      <trkpt lat="47.9835" lon="6.9942">
        <ele>1135</ele>
        <time>2021-12-09T09:45:07.000Z</time>
      </trkpt>
      <trkpt lat="47.9834" lon="6.99417">
        <ele>1137.6</ele>
        <time>2021-12-09T09:45:21.000Z</time>
      </trkpt>
      <trkpt lat="47.98331" lon="6.99413">
        <ele>1139.5</ele>
        <time>2021-12-09T09:45:33.000Z</time>
      </trkpt>
      <trkpt lat="47.98323" lon="6.99406">
        <ele>1139.9</ele>
        <time>2021-12-09T09:45:50.000Z</time>
      </trkpt>
      <trkpt lat="47.98316" lon="6.99399">
        <ele>1140.3</ele>
        <time>2021-12-09T09:46:05.000Z</time>
      </trkpt>
      <trkpt lat="47.98306" lon="6.99396">
        <ele>1142.5</ele>
        <time>2021-12-09T09:46:22.000Z</time>
      </trkpt>
      <trkpt lat="47.98298" lon="6.99391">
        <ele>1144.1</ele>
        <time>2021-12-09T09:46:37.000Z</time>
      </trkpt>
      <trkpt lat="47.9829" lon="6.99385">
        <ele>1145.2</ele>
        <time>2021-12-09T09:46:49.000Z</time>
      </trkpt>
      <trkpt lat="47.98282" lon="6.99379">
        <ele>1146.4</ele>
        <time>2021-12-09T09:47:02.000Z</time>
      </trkpt>
      <trkpt lat="47.98273" lon="6.99373">
        <ele>1147.8</ele>
        <time>2021-12-09T09:47:21.000Z</time>
      </trkpt>
      <trkpt lat="47.98265" lon="6.99366">
        <ele>1148.4</ele>
        <time>2021-12-09T09:47:34.000Z</time>
      </trkpt>
      <trkpt lat="47.98256" lon="6.99362">
        <ele>1149.8</ele>
        <time>2021-12-09T09:47:49.000Z</time>
      </trkpt>
      <trkpt lat="47.98248" lon="6.99356">
        <ele>1150.7</ele>
        <time>2021-12-09T09:48:01.000Z</time>
      </trkpt>
      <trkpt lat="47.98238" lon="6.99354">
        <ele>1152.9</ele>
        <time>2021-12-09T09:48:16.000Z</time>
      </trkpt>
      <trkpt lat="47.98229" lon="6.99351">
        <ele>1154.8</ele>
        <time>2021-12-09T09:48:29.000Z</time>
      </trkpt>
      <trkpt lat="47.98222" lon="6.99343">
        <ele>1155.3</ele>
        <time>2021-12-09T09:48:40.000Z</time>
      </trkpt>
      <trkpt lat="47.98213" lon="6.99338">
        <ele>1156.3</ele>
        <time>2021-12-09T09:48:56.000Z</time>
      </trkpt>
      <trkpt lat="47.98203" lon="6.99337">
        <ele>1158.8</ele>
        <time>2021-12-09T09:49:25.000Z</time>
      </trkpt>
      <trkpt lat="47.98194" lon="6.9933">
        <ele>1159.1</ele>
        <time>2021-12-09T09:49:35.000Z</time>
      </trkpt>
      <trkpt lat="47.98186" lon="6.99324">
        <ele>1159.7</ele>
        <time>2021-12-09T09:49:48.000Z</time>
      </trkpt>
      <trkpt lat="47.98177" lon="6.99319">
        <ele>1160.7</ele>
        <time>2021-12-09T09:50:01.000Z</time>
      </trkpt>
      <trkpt lat="47.98169" lon="6.99315">
        <ele>1162.2</ele>
        <time>2021-12-09T09:50:14.000Z</time>
      </trkpt>
      <trkpt lat="47.98159" lon="6.99312">
        <ele>1164.1</ele>
        <time>2021-12-09T09:50:30.000Z</time>
      </trkpt>
      <trkpt lat="47.98151" lon="6.99308">
        <ele>1165.4</ele>
        <time>2021-12-09T09:50:45.000Z</time>
      </trkpt>
      <trkpt lat="47.98142" lon="6.99303">
        <ele>1166.7</ele>
        <time>2021-12-09T09:51:00.000Z</time>
      </trkpt>
      <trkpt lat="47.98133" lon="6.99301">
        <ele>1168.5</ele>
        <time>2021-12-09T09:51:17.000Z</time>
      </trkpt>
      <trkpt lat="47.98124" lon="6.99298">
        <ele>1170.1</ele>
        <time>2021-12-09T09:51:34.000Z</time>
      </trkpt>
      <trkpt lat="47.98115" lon="6.99294">
        <ele>1171.4</ele>
        <time>2021-12-09T09:51:48.000Z</time>
      </trkpt>
      <trkpt lat="47.98106" lon="6.9929">
        <ele>1173.3</ele>
        <time>2021-12-09T09:52:05.000Z</time>
      </trkpt>
      <trkpt lat="47.98098" lon="6.99283">
        <ele>1174.6</ele>
        <time>2021-12-09T09:52:21.000Z</time>
      </trkpt>
      <trkpt lat="47.9809" lon="6.99275">
        <ele>1175.8</ele>
        <time>2021-12-09T09:52:38.000Z</time>
      </trkpt>
      <trkpt lat="47.98083" lon="6.99267">
        <ele>1177</ele>
        <time>2021-12-09T09:52:56.000Z</time>
      </trkpt>
      <trkpt lat="47.98076" lon="6.99257">
        <ele>1178.3</ele>
        <time>2021-12-09T09:54:39.000Z</time>
      </trkpt>
      <trkpt lat="47.9807" lon="6.99246">
        <ele>1179.2</ele>
        <time>2021-12-09T09:54:55.000Z</time>
      </trkpt>
      <trkpt lat="47.98065" lon="6.99234">
        <ele>1180</ele>
        <time>2021-12-09T09:55:06.000Z</time>
      </trkpt>
      <trkpt lat="47.98059" lon="6.99223">
        <ele>1180.9</ele>
        <time>2021-12-09T09:55:18.000Z</time>
      </trkpt>
      <trkpt lat="47.9805" lon="6.99216">
        <ele>1182.7</ele>
        <time>2021-12-09T09:56:01.000Z</time>
      </trkpt>
      <trkpt lat="47.98044" lon="6.99207">
        <ele>1183.1</ele>
        <time>2021-12-09T09:56:12.000Z</time>
      </trkpt>
      <trkpt lat="47.98037" lon="6.99197">
        <ele>1184</ele>
        <time>2021-12-09T09:56:26.000Z</time>
      </trkpt>
      <trkpt lat="47.98031" lon="6.99188">
        <ele>1184.8</ele>
        <time>2021-12-09T09:56:40.000Z</time>
      </trkpt>
      <trkpt lat="47.98024" lon="6.99178">
        <ele>1185.5</ele>
        <time>2021-12-09T09:56:54.000Z</time>
      </trkpt>
      <trkpt lat="47.98017" lon="6.99169">
        <ele>1186.3</ele>
        <time>2021-12-09T09:57:06.000Z</time>
      </trkpt>
      <trkpt lat="47.9801" lon="6.9916">
        <ele>1187.2</ele>
        <time>2021-12-09T09:57:18.000Z</time>
      </trkpt>
      <trkpt lat="47.98004" lon="6.99148">
        <ele>1187.2</ele>
        <time>2021-12-09T09:58:01.000Z</time>
      </trkpt>
      <trkpt lat="47.98" lon="6.99135">
        <ele>1186.3</ele>
        <time>2021-12-09T09:58:07.000Z</time>
      </trkpt>
      <trkpt lat="47.97994" lon="6.99124">
        <ele>1186.1</ele>
        <time>2021-12-09T09:58:14.000Z</time>
      </trkpt>
      <trkpt lat="47.97991" lon="6.9911">
        <ele>1184.5</ele>
        <time>2021-12-09T09:58:23.000Z</time>
      </trkpt>
      <trkpt lat="47.97985" lon="6.99099">
        <ele>1183.9</ele>
        <time>2021-12-09T09:58:35.000Z</time>
      </trkpt>
      <trkpt lat="47.97979" lon="6.99087">
        <ele>1183.4</ele>
        <time>2021-12-09T09:58:49.000Z</time>
      </trkpt>
      <trkpt lat="47.97974" lon="6.99076">
        <ele>1183</ele>
        <time>2021-12-09T09:59:00.000Z</time>
      </trkpt>
      <trkpt lat="47.97969" lon="6.99064">
        <ele>1182.6</ele>
        <time>2021-12-09T09:59:12.000Z</time>
      </trkpt>
      <trkpt lat="47.97963" lon="6.99054">
        <ele>1182.6</ele>
        <time>2021-12-09T09:59:22.000Z</time>
      </trkpt>
      <trkpt lat="47.97957" lon="6.99043">
        <ele>1182</ele>
        <time>2021-12-09T09:59:31.000Z</time>
      </trkpt>
      <trkpt lat="47.97952" lon="6.99031">
        <ele>1181.2</ele>
        <time>2021-12-09T09:59:42.000Z</time>
      </trkpt>
      <trkpt lat="47.97945" lon="6.99022">
        <ele>1181.2</ele>
        <time>2021-12-09T09:59:54.000Z</time>
      </trkpt>
      <trkpt lat="47.97939" lon="6.99012">
        <ele>1180.6</ele>
        <time>2021-12-09T10:00:03.000Z</time>
      </trkpt>
      <trkpt lat="47.97932" lon="6.99004">
        <ele>1181.1</ele>
        <time>2021-12-09T10:00:15.000Z</time>
      </trkpt>
      <trkpt lat="47.97925" lon="6.98995">
        <ele>1180.9</ele>
        <time>2021-12-09T10:00:26.000Z</time>
      </trkpt>
      <trkpt lat="47.97918" lon="6.98987">
        <ele>1180.4</ele>
        <time>2021-12-09T10:00:38.000Z</time>
      </trkpt>
      <trkpt lat="47.9791" lon="6.98978">
        <ele>1179.8</ele>
        <time>2021-12-09T10:00:48.000Z</time>
      </trkpt>
      <trkpt lat="47.97902" lon="6.9897">
        <ele>1179.8</ele>
        <time>2021-12-09T10:01:01.000Z</time>
      </trkpt>
      <trkpt lat="47.97895" lon="6.98961">
        <ele>1179.5</ele>
        <time>2021-12-09T10:01:14.000Z</time>
      </trkpt>
      <trkpt lat="47.97886" lon="6.98954">
        <ele>1180</ele>
        <time>2021-12-09T10:01:26.000Z</time>
      </trkpt>
      <trkpt lat="47.97878" lon="6.98949">
        <ele>1180.5</ele>
        <time>2021-12-09T10:01:38.000Z</time>
      </trkpt>
      <trkpt lat="47.97869" lon="6.98942">
        <ele>1181</ele>
        <time>2021-12-09T10:01:48.000Z</time>
      </trkpt>
      <trkpt lat="47.97861" lon="6.98935">
        <ele>1181.2</ele>
        <time>2021-12-09T10:01:58.000Z</time>
      </trkpt>
      <trkpt lat="47.97854" lon="6.98927">
        <ele>1181.3</ele>
        <time>2021-12-09T10:02:10.000Z</time>
      </trkpt>
      <trkpt lat="47.97845" lon="6.98922">
        <ele>1182.7</ele>
        <time>2021-12-09T10:02:24.000Z</time>
      </trkpt>
      <trkpt lat="47.97839" lon="6.98913">
        <ele>1183.8</ele>
        <time>2021-12-09T10:02:38.000Z</time>
      </trkpt>
      <trkpt lat="47.97828" lon="6.98902">
        <ele>1190.8</ele>
        <time>2021-12-09T10:03:26.000Z</time>
      </trkpt>
      <trkpt lat="47.97821" lon="6.98893">
        <ele>1196.8</ele>
        <time>2021-12-09T10:04:04.000Z</time>
      </trkpt>
      <trkpt lat="47.97813" lon="6.98887">
        <ele>1202.9</ele>
        <time>2021-12-09T10:05:19.000Z</time>
      </trkpt>
      <trkpt lat="47.97804" lon="6.98883">
        <ele>1208.3</ele>
        <time>2021-12-09T10:06:02.000Z</time>
      </trkpt>
      <trkpt lat="47.97803" lon="6.98869">
        <ele>1210</ele>
        <time>2021-12-09T10:07:35.000Z</time>
      </trkpt>
      <trkpt lat="47.97801" lon="6.98855">
        <ele>1211.2</ele>
        <time>2021-12-09T10:08:02.000Z</time>
      </trkpt>
      <trkpt lat="47.97797" lon="6.98843">
        <ele>1212</ele>
        <time>2021-12-09T10:08:15.000Z</time>
      </trkpt>
      <trkpt lat="47.97796" lon="6.98829">
        <ele>1212.1</ele>
        <time>2021-12-09T10:08:24.000Z</time>
      </trkpt>
      <trkpt lat="47.97798" lon="6.98815">
        <ele>1211.6</ele>
        <time>2021-12-09T10:08:33.000Z</time>
      </trkpt>
      <trkpt lat="47.978" lon="6.98802">
        <ele>1211.1</ele>
        <time>2021-12-09T10:08:41.000Z</time>
      </trkpt>
      <trkpt lat="47.97804" lon="6.98788">
        <ele>1210.4</ele>
        <time>2021-12-09T10:08:55.000Z</time>
      </trkpt>
      <trkpt lat="47.97808" lon="6.98775">
        <ele>1209.5</ele>
        <time>2021-12-09T10:09:04.000Z</time>
      </trkpt>
      <trkpt lat="47.9781" lon="6.98762">
        <ele>1209.3</ele>
        <time>2021-12-09T10:09:10.000Z</time>
      </trkpt>
      <trkpt lat="47.97813" lon="6.98748">
        <ele>1208.6</ele>
        <time>2021-12-09T10:09:19.000Z</time>
      </trkpt>
      <trkpt lat="47.97818" lon="6.98737">
        <ele>1207.4</ele>
        <time>2021-12-09T10:09:27.000Z</time>
      </trkpt>
      <trkpt lat="47.97823" lon="6.98725">
        <ele>1206.5</ele>
        <time>2021-12-09T10:09:35.000Z</time>
      </trkpt>
      <trkpt lat="47.97827" lon="6.98713">
        <ele>1205.9</ele>
        <time>2021-12-09T10:09:44.000Z</time>
      </trkpt>
      <trkpt lat="47.97833" lon="6.98701">
        <ele>1205</ele>
        <time>2021-12-09T10:09:52.000Z</time>
      </trkpt>
      <trkpt lat="47.97837" lon="6.98689">
        <ele>1204.6</ele>
        <time>2021-12-09T10:10:00.000Z</time>
      </trkpt>
      <trkpt lat="47.97842" lon="6.98677">
        <ele>1204.1</ele>
        <time>2021-12-09T10:10:08.000Z</time>
      </trkpt>
      <trkpt lat="47.97848" lon="6.98665">
        <ele>1203.5</ele>
        <time>2021-12-09T10:10:17.000Z</time>
      </trkpt>
      <trkpt lat="47.97853" lon="6.98654">
        <ele>1203.2</ele>
        <time>2021-12-09T10:10:25.000Z</time>
      </trkpt>
      <trkpt lat="47.97859" lon="6.98643">
        <ele>1203</ele>
        <time>2021-12-09T10:10:33.000Z</time>
      </trkpt>
      <trkpt lat="47.97865" lon="6.9863">
        <ele>1202.2</ele>
        <time>2021-12-09T10:10:41.000Z</time>
      </trkpt>
      <trkpt lat="47.9787" lon="6.98618">
        <ele>1201.2</ele>
        <time>2021-12-09T10:10:49.000Z</time>
      </trkpt>
      <trkpt lat="47.97873" lon="6.98604">
        <ele>1200.7</ele>
        <time>2021-12-09T10:10:57.000Z</time>
      </trkpt>
      <trkpt lat="47.97877" lon="6.98591">
        <ele>1200.3</ele>
        <time>2021-12-09T10:11:05.000Z</time>
      </trkpt>
      <trkpt lat="47.97879" lon="6.98576">
        <ele>1199.8</ele>
        <time>2021-12-09T10:11:15.000Z</time>
      </trkpt>
      <trkpt lat="47.9788" lon="6.98562">
        <ele>1199.2</ele>
        <time>2021-12-09T10:11:22.000Z</time>
      </trkpt>
      <trkpt lat="47.97886" lon="6.9855">
        <ele>1197.9</ele>
        <time>2021-12-09T10:11:30.000Z</time>
      </trkpt>
      <trkpt lat="47.97895" lon="6.98546">
        <ele>1196.8</ele>
        <time>2021-12-09T10:11:38.000Z</time>
      </trkpt>
      <trkpt lat="47.97902" lon="6.98538">
        <ele>1195.9</ele>
        <time>2021-12-09T10:11:45.000Z</time>
      </trkpt>
      <trkpt lat="47.97911" lon="6.98532">
        <ele>1195.3</ele>
        <time>2021-12-09T10:11:53.000Z</time>
      </trkpt>
      <trkpt lat="47.9792" lon="6.98527">
        <ele>1194.7</ele>
        <time>2021-12-09T10:12:01.000Z</time>
      </trkpt>
      <trkpt lat="47.9793" lon="6.98528">
        <ele>1194.1</ele>
        <time>2021-12-09T10:12:07.000Z</time>
      </trkpt>
      <trkpt lat="47.97939" lon="6.98523">
        <ele>1193.2</ele>
        <time>2021-12-09T10:12:14.000Z</time>
      </trkpt>
      <trkpt lat="47.97949" lon="6.9852">
        <ele>1192.5</ele>
        <time>2021-12-09T10:12:23.000Z</time>
      </trkpt>
      <trkpt lat="47.97956" lon="6.98511">
        <ele>1191.8</ele>
        <time>2021-12-09T10:12:30.000Z</time>
      </trkpt>
      <trkpt lat="47.97965" lon="6.98507">
        <ele>1191.3</ele>
        <time>2021-12-09T10:12:37.000Z</time>
      </trkpt>
      <trkpt lat="47.97973" lon="6.98499">
        <ele>1191</ele>
        <time>2021-12-09T10:12:45.000Z</time>
      </trkpt>
      <trkpt lat="47.97981" lon="6.98494">
        <ele>1190.8</ele>
        <time>2021-12-09T10:13:16.000Z</time>
      </trkpt>
      <trkpt lat="47.97989" lon="6.98488">
        <ele>1190.8</ele>
        <time>2021-12-09T10:13:26.000Z</time>
      </trkpt>
      <trkpt lat="47.97995" lon="6.98477">
        <ele>1190.9</ele>
        <time>2021-12-09T10:13:40.000Z</time>
      </trkpt>
      <trkpt lat="47.98003" lon="6.98468">
        <ele>1191.2</ele>
        <time>2021-12-09T10:14:04.000Z</time>
      </trkpt>
      <trkpt lat="47.98012" lon="6.98468">
        <ele>1191.9</ele>
        <time>2021-12-09T10:14:14.000Z</time>
      </trkpt>
      <trkpt lat="47.98019" lon="6.98459">
        <ele>1192.7</ele>
        <time>2021-12-09T10:14:22.000Z</time>
      </trkpt>
      <trkpt lat="47.98028" lon="6.98455">
        <ele>1193.7</ele>
        <time>2021-12-09T10:14:38.000Z</time>
      </trkpt>
      <trkpt lat="47.98037" lon="6.98449">
        <ele>1194.8</ele>
        <time>2021-12-09T10:15:40.000Z</time>
      </trkpt>
      <trkpt lat="47.98044" lon="6.9844">
        <ele>1195.8</ele>
        <time>2021-12-09T10:18:56.000Z</time>
      </trkpt>
      <trkpt lat="47.9805" lon="6.98428">
        <ele>1196.4</ele>
        <time>2021-12-09T10:19:05.000Z</time>
      </trkpt>
      <trkpt lat="47.98058" lon="6.9842">
        <ele>1197.3</ele>
        <time>2021-12-09T10:19:14.000Z</time>
      </trkpt>
      <trkpt lat="47.98066" lon="6.98412">
        <ele>1198.2</ele>
        <time>2021-12-09T10:19:23.000Z</time>
      </trkpt>
      <trkpt lat="47.98076" lon="6.98409">
        <ele>1199.4</ele>
        <time>2021-12-09T10:19:32.000Z</time>
      </trkpt>
      <trkpt lat="47.98085" lon="6.98409">
        <ele>1200.5</ele>
        <time>2021-12-09T10:19:41.000Z</time>
      </trkpt>
      <trkpt lat="47.98092" lon="6.984">
        <ele>1201.7</ele>
        <time>2021-12-09T10:19:55.000Z</time>
      </trkpt>
      <trkpt lat="47.98097" lon="6.98389">
        <ele>1203</ele>
        <time>2021-12-09T10:20:06.000Z</time>
      </trkpt>
      <trkpt lat="47.98105" lon="6.98382">
        <ele>1204.1</ele>
        <time>2021-12-09T10:20:15.000Z</time>
      </trkpt>
      <trkpt lat="47.98114" lon="6.98378">
        <ele>1205.3</ele>
        <time>2021-12-09T10:20:25.000Z</time>
      </trkpt>
      <trkpt lat="47.98122" lon="6.98371">
        <ele>1206.2</ele>
        <time>2021-12-09T10:20:35.000Z</time>
      </trkpt>
      <trkpt lat="47.98131" lon="6.98367">
        <ele>1207.2</ele>
        <time>2021-12-09T10:20:45.000Z</time>
      </trkpt>
      <trkpt lat="47.98141" lon="6.98367">
        <ele>1208.2</ele>
        <time>2021-12-09T10:20:54.000Z</time>
      </trkpt>
      <trkpt lat="47.9815" lon="6.98366">
        <ele>1209.1</ele>
        <time>2021-12-09T10:21:05.000Z</time>
      </trkpt>
      <trkpt lat="47.98159" lon="6.98363">
        <ele>1210.1</ele>
        <time>2021-12-09T10:21:16.000Z</time>
      </trkpt>
      <trkpt lat="47.98168" lon="6.9836">
        <ele>1211.2</ele>
        <time>2021-12-09T10:21:27.000Z</time>
      </trkpt>
      <trkpt lat="47.98178" lon="6.98358">
        <ele>1212.2</ele>
        <time>2021-12-09T10:21:37.000Z</time>
      </trkpt>
      <trkpt lat="47.98188" lon="6.98356">
        <ele>1213.3</ele>
        <time>2021-12-09T10:21:45.000Z</time>
      </trkpt>
      <trkpt lat="47.98197" lon="6.98354">
        <ele>1214.2</ele>
        <time>2021-12-09T10:21:54.000Z</time>
      </trkpt>
      <trkpt lat="47.98206" lon="6.98353">
        <ele>1215.1</ele>
        <time>2021-12-09T10:22:02.000Z</time>
      </trkpt>
      <trkpt lat="47.98215" lon="6.98353">
        <ele>1216</ele>
        <time>2021-12-09T10:22:12.000Z</time>
      </trkpt>
      <trkpt lat="47.98224" lon="6.98352">
        <ele>1216.8</ele>
        <time>2021-12-09T10:22:24.000Z</time>
      </trkpt>
      <trkpt lat="47.98234" lon="6.98349">
        <ele>1217.4</ele>
        <time>2021-12-09T10:22:35.000Z</time>
      </trkpt>
      <trkpt lat="47.98243" lon="6.98348">
        <ele>1218</ele>
        <time>2021-12-09T10:22:44.000Z</time>
      </trkpt>
      <trkpt lat="47.98253" lon="6.98344">
        <ele>1218.5</ele>
        <time>2021-12-09T10:22:55.000Z</time>
      </trkpt>
      <trkpt lat="47.98262" lon="6.98343">
        <ele>1218.9</ele>
        <time>2021-12-09T10:23:04.000Z</time>
      </trkpt>
      <trkpt lat="47.98271" lon="6.98337">
        <ele>1219.4</ele>
        <time>2021-12-09T10:23:18.000Z</time>
      </trkpt>
      <trkpt lat="47.9828" lon="6.98335">
        <ele>1220.1</ele>
        <time>2021-12-09T10:23:34.000Z</time>
      </trkpt>
      <trkpt lat="47.9829" lon="6.98335">
        <ele>1221.2</ele>
        <time>2021-12-09T10:23:50.000Z</time>
      </trkpt>
      <trkpt lat="47.98299" lon="6.98336">
        <ele>1222</ele>
        <time>2021-12-09T10:24:01.000Z</time>
      </trkpt>
      <trkpt lat="47.98308" lon="6.98336">
        <ele>1222.8</ele>
        <time>2021-12-09T10:24:12.000Z</time>
      </trkpt>
      <trkpt lat="47.98317" lon="6.98332">
        <ele>1223.5</ele>
        <time>2021-12-09T10:24:27.000Z</time>
      </trkpt>
      <trkpt lat="47.98324" lon="6.98325">
        <ele>1224.5</ele>
        <time>2021-12-09T10:24:40.000Z</time>
      </trkpt>
      <trkpt lat="47.98332" lon="6.98317">
        <ele>1225.7</ele>
        <time>2021-12-09T10:24:54.000Z</time>
      </trkpt>
      <trkpt lat="47.98337" lon="6.98304">
        <ele>1227</ele>
        <time>2021-12-09T10:25:10.000Z</time>
      </trkpt>
      <trkpt lat="47.98343" lon="6.98294">
        <ele>1227.7</ele>
        <time>2021-12-09T10:25:24.000Z</time>
      </trkpt>
      <trkpt lat="47.98352" lon="6.98288">
        <ele>1228</ele>
        <time>2021-12-09T10:25:35.000Z</time>
      </trkpt>
      <trkpt lat="47.9836" lon="6.98282">
        <ele>1228.6</ele>
        <time>2021-12-09T10:25:49.000Z</time>
      </trkpt>
      <trkpt lat="47.98365" lon="6.98269">
        <ele>1228.3</ele>
        <time>2021-12-09T10:26:18.000Z</time>
      </trkpt>
      <trkpt lat="47.98372" lon="6.98262">
        <ele>1227.4</ele>
        <time>2021-12-09T10:26:37.000Z</time>
      </trkpt>
      <trkpt lat="47.98363" lon="6.98266">
        <ele>1228.4</ele>
        <time>2021-12-09T10:26:51.000Z</time>
      </trkpt>
      <trkpt lat="47.9837" lon="6.98257">
        <ele>1227.5</ele>
        <time>2021-12-09T10:26:56.000Z</time>
      </trkpt>
      <trkpt lat="47.98361" lon="6.98255">
        <ele>1228.1</ele>
        <time>2021-12-09T10:30:05.000Z</time>
      </trkpt>
      <trkpt lat="47.98369" lon="6.98264">
        <ele>1227.8</ele>
        <time>2021-12-09T10:30:38.000Z</time>
      </trkpt>
      <trkpt lat="47.98374" lon="6.98285">
        <ele>1227</ele>
        <time>2021-12-09T10:30:43.000Z</time>
      </trkpt>
      <trkpt lat="47.98375" lon="6.98302">
        <ele>1225.3</ele>
        <time>2021-12-09T10:30:48.000Z</time>
      </trkpt>
      <trkpt lat="47.98372" lon="6.98279">
        <ele>1227.7</ele>
        <time>2021-12-09T10:30:54.000Z</time>
      </trkpt>
      <trkpt lat="47.98371" lon="6.98266">
        <ele>1227.6</ele>
        <time>2021-12-09T10:31:01.000Z</time>
      </trkpt>
      <trkpt lat="47.98373" lon="6.98252">
        <ele>1227.2</ele>
        <time>2021-12-09T10:31:08.000Z</time>
      </trkpt>
      <trkpt lat="47.98367" lon="6.9824">
        <ele>1226.9</ele>
        <time>2021-12-09T10:31:16.000Z</time>
      </trkpt>
      <trkpt lat="47.98366" lon="6.98254">
        <ele>1227.8</ele>
        <time>2021-12-09T10:31:29.000Z</time>
      </trkpt>
      <trkpt lat="47.98367" lon="6.98268">
        <ele>1228.1</ele>
        <time>2021-12-09T10:31:36.000Z</time>
      </trkpt>
      <trkpt lat="47.98371" lon="6.9829">
        <ele>1226.8</ele>
        <time>2021-12-09T10:31:41.000Z</time>
      </trkpt>
      <trkpt lat="47.9837" lon="6.98274">
        <ele>1227.9</ele>
        <time>2021-12-09T10:31:49.000Z</time>
      </trkpt>
      <trkpt lat="47.98368" lon="6.98257">
        <ele>1227.7</ele>
        <time>2021-12-09T10:31:58.000Z</time>
      </trkpt>
      <trkpt lat="47.98371" lon="6.98271">
        <ele>1227.8</ele>
        <time>2021-12-09T10:32:32.000Z</time>
      </trkpt>
      <trkpt lat="47.98366" lon="6.9826">
        <ele>1228</ele>
        <time>2021-12-09T10:32:53.000Z</time>
      </trkpt>
      <trkpt lat="47.9837" lon="6.98248">
        <ele>1227.2</ele>
        <time>2021-12-09T10:35:03.000Z</time>
      </trkpt>
      <trkpt lat="47.98371" lon="6.98261">
        <ele>1227.5</ele>
        <time>2021-12-09T10:35:48.000Z</time>
      </trkpt>
      <trkpt lat="47.9838" lon="6.98263">
        <ele>1226.8</ele>
        <time>2021-12-09T10:44:17.000Z</time>
      </trkpt>
      <trkpt lat="47.98385" lon="6.98251">
        <ele>1226.3</ele>
        <time>2021-12-09T10:44:26.000Z</time>
      </trkpt>
      <trkpt lat="47.98389" lon="6.98238">
        <ele>1225.5</ele>
        <time>2021-12-09T10:44:34.000Z</time>
      </trkpt>
      <trkpt lat="47.98394" lon="6.98227">
        <ele>1224.6</ele>
        <time>2021-12-09T10:44:41.000Z</time>
      </trkpt>
      <trkpt lat="47.98401" lon="6.98216">
        <ele>1223.5</ele>
        <time>2021-12-09T10:44:49.000Z</time>
      </trkpt>
      <trkpt lat="47.9841" lon="6.9821">
        <ele>1222.9</ele>
        <time>2021-12-09T10:44:57.000Z</time>
      </trkpt>
      <trkpt lat="47.98417" lon="6.98201">
        <ele>1222.8</ele>
        <time>2021-12-09T10:45:07.000Z</time>
      </trkpt>
      <trkpt lat="47.98424" lon="6.98191">
        <ele>1223.2</ele>
        <time>2021-12-09T10:45:14.000Z</time>
      </trkpt>
      <trkpt lat="47.98431" lon="6.9818">
        <ele>1223.5</ele>
        <time>2021-12-09T10:45:21.000Z</time>
      </trkpt>
      <trkpt lat="47.98438" lon="6.98171">
        <ele>1223.8</ele>
        <time>2021-12-09T10:45:29.000Z</time>
      </trkpt>
      <trkpt lat="47.98446" lon="6.98162">
        <ele>1223.8</ele>
        <time>2021-12-09T10:45:41.000Z</time>
      </trkpt>
      <trkpt lat="47.98454" lon="6.98153">
        <ele>1223.5</ele>
        <time>2021-12-09T10:45:49.000Z</time>
      </trkpt>
      <trkpt lat="47.98461" lon="6.98145">
        <ele>1223.2</ele>
        <time>2021-12-09T10:45:56.000Z</time>
      </trkpt>
      <trkpt lat="47.9847" lon="6.98138">
        <ele>1223</ele>
        <time>2021-12-09T10:46:04.000Z</time>
      </trkpt>
      <trkpt lat="47.98475" lon="6.98126">
        <ele>1223</ele>
        <time>2021-12-09T10:46:12.000Z</time>
      </trkpt>
      <trkpt lat="47.9848" lon="6.98115">
        <ele>1223</ele>
        <time>2021-12-09T10:46:20.000Z</time>
      </trkpt>
      <trkpt lat="47.98487" lon="6.98105">
        <ele>1223</ele>
        <time>2021-12-09T10:46:27.000Z</time>
      </trkpt>
      <trkpt lat="47.98494" lon="6.98096">
        <ele>1223.3</ele>
        <time>2021-12-09T10:46:33.000Z</time>
      </trkpt>
      <trkpt lat="47.985" lon="6.98086">
        <ele>1223.9</ele>
        <time>2021-12-09T10:46:42.000Z</time>
      </trkpt>
      <trkpt lat="47.98508" lon="6.98078">
        <ele>1224.5</ele>
        <time>2021-12-09T10:46:52.000Z</time>
      </trkpt>
      <trkpt lat="47.98515" lon="6.98068">
        <ele>1225.4</ele>
        <time>2021-12-09T10:47:01.000Z</time>
      </trkpt>
      <trkpt lat="47.98524" lon="6.98061">
        <ele>1226.3</ele>
        <time>2021-12-09T10:47:10.000Z</time>
      </trkpt>
      <trkpt lat="47.98532" lon="6.98054">
        <ele>1227.6</ele>
        <time>2021-12-09T10:47:23.000Z</time>
      </trkpt>
      <trkpt lat="47.98541" lon="6.98048">
        <ele>1228.9</ele>
        <time>2021-12-09T10:47:37.000Z</time>
      </trkpt>
      <trkpt lat="47.98548" lon="6.9804">
        <ele>1230.3</ele>
        <time>2021-12-09T10:47:49.000Z</time>
      </trkpt>
      <trkpt lat="47.98554" lon="6.9803">
        <ele>1231.7</ele>
        <time>2021-12-09T10:48:02.000Z</time>
      </trkpt>
      <trkpt lat="47.98563" lon="6.98026">
        <ele>1231.6</ele>
        <time>2021-12-09T10:48:11.000Z</time>
      </trkpt>
      <trkpt lat="47.98572" lon="6.98023">
        <ele>1231.2</ele>
        <time>2021-12-09T10:48:20.000Z</time>
      </trkpt>
      <trkpt lat="47.98582" lon="6.98022">
        <ele>1230.8</ele>
        <time>2021-12-09T10:48:28.000Z</time>
      </trkpt>
      <trkpt lat="47.98591" lon="6.98023">
        <ele>1231.1</ele>
        <time>2021-12-09T10:48:39.000Z</time>
      </trkpt>
      <trkpt lat="47.98601" lon="6.98023">
        <ele>1231.4</ele>
        <time>2021-12-09T10:48:49.000Z</time>
      </trkpt>
      <trkpt lat="47.9861" lon="6.9802">
        <ele>1231.7</ele>
        <time>2021-12-09T10:48:58.000Z</time>
      </trkpt>
      <trkpt lat="47.98619" lon="6.98016">
        <ele>1232.3</ele>
        <time>2021-12-09T10:49:08.000Z</time>
      </trkpt>
      <trkpt lat="47.98628" lon="6.98014">
        <ele>1233</ele>
        <time>2021-12-09T10:49:18.000Z</time>
      </trkpt>
      <trkpt lat="47.98637" lon="6.98011">
        <ele>1233.9</ele>
        <time>2021-12-09T10:49:28.000Z</time>
      </trkpt>
      <trkpt lat="47.98647" lon="6.98008">
        <ele>1235</ele>
        <time>2021-12-09T10:49:42.000Z</time>
      </trkpt>
      <trkpt lat="47.98656" lon="6.98006">
        <ele>1236.4</ele>
        <time>2021-12-09T10:49:54.000Z</time>
      </trkpt>
      <trkpt lat="47.98666" lon="6.98005">
        <ele>1237.7</ele>
        <time>2021-12-09T10:50:04.000Z</time>
      </trkpt>
      <trkpt lat="47.98676" lon="6.98005">
        <ele>1237.6</ele>
        <time>2021-12-09T10:50:17.000Z</time>
      </trkpt>
      <trkpt lat="47.98686" lon="6.98005">
        <ele>1237.3</ele>
        <time>2021-12-09T10:50:32.000Z</time>
      </trkpt>
      <trkpt lat="47.98695" lon="6.98003">
        <ele>1237</ele>
        <time>2021-12-09T10:50:41.000Z</time>
      </trkpt>
      <trkpt lat="47.98704" lon="6.98002">
        <ele>1237</ele>
        <time>2021-12-09T10:50:49.000Z</time>
      </trkpt>
      <trkpt lat="47.98713" lon="6.98006">
        <ele>1237.1</ele>
        <time>2021-12-09T10:50:58.000Z</time>
      </trkpt>
      <trkpt lat="47.98722" lon="6.98008">
        <ele>1237.3</ele>
        <time>2021-12-09T10:51:08.000Z</time>
      </trkpt>
      <trkpt lat="47.98731" lon="6.98009">
        <ele>1237.8</ele>
        <time>2021-12-09T10:51:19.000Z</time>
      </trkpt>
      <trkpt lat="47.9874" lon="6.98008">
        <ele>1238.1</ele>
        <time>2021-12-09T10:52:56.000Z</time>
      </trkpt>
      <trkpt lat="47.9875" lon="6.9801">
        <ele>1238.7</ele>
        <time>2021-12-09T10:53:07.000Z</time>
      </trkpt>
      <trkpt lat="47.98759" lon="6.98012">
        <ele>1239.9</ele>
        <time>2021-12-09T10:53:19.000Z</time>
      </trkpt>
      <trkpt lat="47.98766" lon="6.9802">
        <ele>1240.9</ele>
        <time>2021-12-09T10:53:31.000Z</time>
      </trkpt>
      <trkpt lat="47.98776" lon="6.98024">
        <ele>1241.8</ele>
        <time>2021-12-09T10:53:43.000Z</time>
      </trkpt>
      <trkpt lat="47.98785" lon="6.98026">
        <ele>1242.8</ele>
        <time>2021-12-09T10:53:54.000Z</time>
      </trkpt>
      <trkpt lat="47.98794" lon="6.9803">
        <ele>1243.8</ele>
        <time>2021-12-09T10:54:07.000Z</time>
      </trkpt>
      <trkpt lat="47.98803" lon="6.98035">
        <ele>1244.7</ele>
        <time>2021-12-09T10:54:19.000Z</time>
      </trkpt>
      <trkpt lat="47.98813" lon="6.98037">
        <ele>1245.6</ele>
        <time>2021-12-09T10:54:31.000Z</time>
      </trkpt>
      <trkpt lat="47.98823" lon="6.98039">
        <ele>1246.3</ele>
        <time>2021-12-09T10:54:43.000Z</time>
      </trkpt>
      <trkpt lat="47.98832" lon="6.98041">
        <ele>1247</ele>
        <time>2021-12-09T10:54:56.000Z</time>
      </trkpt>
      <trkpt lat="47.98841" lon="6.98042">
        <ele>1246.6</ele>
        <time>2021-12-09T10:55:06.000Z</time>
      </trkpt>
      <trkpt lat="47.98851" lon="6.98045">
        <ele>1246.1</ele>
        <time>2021-12-09T10:55:16.000Z</time>
      </trkpt>
      <trkpt lat="47.98861" lon="6.98046">
        <ele>1245.7</ele>
        <time>2021-12-09T10:55:26.000Z</time>
      </trkpt>
      <trkpt lat="47.9887" lon="6.98046">
        <ele>1245.4</ele>
        <time>2021-12-09T10:55:34.000Z</time>
      </trkpt>
      <trkpt lat="47.9888" lon="6.98047">
        <ele>1245.2</ele>
        <time>2021-12-09T10:55:41.000Z</time>
      </trkpt>
      <trkpt lat="47.98889" lon="6.98048">
        <ele>1245</ele>
        <time>2021-12-09T10:55:50.000Z</time>
      </trkpt>
      <trkpt lat="47.98898" lon="6.9805">
        <ele>1246</ele>
        <time>2021-12-09T10:56:01.000Z</time>
      </trkpt>
      <trkpt lat="47.98908" lon="6.98051">
        <ele>1247.1</ele>
        <time>2021-12-09T10:56:13.000Z</time>
      </trkpt>
      <trkpt lat="47.98917" lon="6.9805">
        <ele>1248.2</ele>
        <time>2021-12-09T10:56:21.000Z</time>
      </trkpt>
      <trkpt lat="47.98926" lon="6.98053">
        <ele>1247.7</ele>
        <time>2021-12-09T10:56:28.000Z</time>
      </trkpt>
      <trkpt lat="47.98936" lon="6.98054">
        <ele>1247.3</ele>
        <time>2021-12-09T10:56:35.000Z</time>
      </trkpt>
      <trkpt lat="47.98945" lon="6.98056">
        <ele>1247</ele>
        <time>2021-12-09T10:56:46.000Z</time>
      </trkpt>
      <trkpt lat="47.98955" lon="6.98057">
        <ele>1247.3</ele>
        <time>2021-12-09T10:56:57.000Z</time>
      </trkpt>
      <trkpt lat="47.98964" lon="6.98058">
        <ele>1247.7</ele>
        <time>2021-12-09T10:57:08.000Z</time>
      </trkpt>
      <trkpt lat="47.98973" lon="6.98057">
        <ele>1248.2</ele>
        <time>2021-12-09T10:57:18.000Z</time>
      </trkpt>
      <trkpt lat="47.98983" lon="6.98057">
        <ele>1249.5</ele>
        <time>2021-12-09T10:57:30.000Z</time>
      </trkpt>
      <trkpt lat="47.98992" lon="6.98059">
        <ele>1250.7</ele>
        <time>2021-12-09T10:57:41.000Z</time>
      </trkpt>
      <trkpt lat="47.99001" lon="6.98059">
        <ele>1251.9</ele>
        <time>2021-12-09T10:57:51.000Z</time>
      </trkpt>
      <trkpt lat="47.9901" lon="6.9806">
        <ele>1251.9</ele>
        <time>2021-12-09T10:57:59.000Z</time>
      </trkpt>
      <trkpt lat="47.99019" lon="6.98062">
        <ele>1251.9</ele>
        <time>2021-12-09T10:58:08.000Z</time>
      </trkpt>
      <trkpt lat="47.99029" lon="6.98064">
        <ele>1252.1</ele>
        <time>2021-12-09T10:58:17.000Z</time>
      </trkpt>
      <trkpt lat="47.99038" lon="6.98066">
        <ele>1252.9</ele>
        <time>2021-12-09T10:58:27.000Z</time>
      </trkpt>
      <trkpt lat="47.99048" lon="6.98068">
        <ele>1253.8</ele>
        <time>2021-12-09T10:58:38.000Z</time>
      </trkpt>
      <trkpt lat="47.99058" lon="6.9807">
        <ele>1254.8</ele>
        <time>2021-12-09T10:58:51.000Z</time>
      </trkpt>
      <trkpt lat="47.99067" lon="6.98071">
        <ele>1255.8</ele>
        <time>2021-12-09T10:59:01.000Z</time>
      </trkpt>
      <trkpt lat="47.99076" lon="6.98076">
        <ele>1256.9</ele>
        <time>2021-12-09T10:59:10.000Z</time>
      </trkpt>
      <trkpt lat="47.99085" lon="6.98077">
        <ele>1258</ele>
        <time>2021-12-09T10:59:19.000Z</time>
      </trkpt>
      <trkpt lat="47.99095" lon="6.98079">
        <ele>1259.1</ele>
        <time>2021-12-09T10:59:31.000Z</time>
      </trkpt>
      <trkpt lat="47.99104" lon="6.98082">
        <ele>1260.2</ele>
        <time>2021-12-09T10:59:43.000Z</time>
      </trkpt>
      <trkpt lat="47.99114" lon="6.98082">
        <ele>1261.2</ele>
        <time>2021-12-09T10:59:53.000Z</time>
      </trkpt>
      <trkpt lat="47.99123" lon="6.98083">
        <ele>1262.2</ele>
        <time>2021-12-09T11:00:02.000Z</time>
      </trkpt>
      <trkpt lat="47.99132" lon="6.98086">
        <ele>1263.2</ele>
        <time>2021-12-09T11:00:15.000Z</time>
      </trkpt>
      <trkpt lat="47.99142" lon="6.98087">
        <ele>1264.4</ele>
        <time>2021-12-09T11:00:25.000Z</time>
      </trkpt>
      <trkpt lat="47.99151" lon="6.98088">
        <ele>1266</ele>
        <time>2021-12-09T11:00:36.000Z</time>
      </trkpt>
      <trkpt lat="47.9916" lon="6.98086">
        <ele>1267.7</ele>
        <time>2021-12-09T11:00:50.000Z</time>
      </trkpt>
      <trkpt lat="47.99169" lon="6.98083">
        <ele>1269.4</ele>
        <time>2021-12-09T11:01:04.000Z</time>
      </trkpt>
      <trkpt lat="47.99178" lon="6.98081">
        <ele>1271.3</ele>
        <time>2021-12-09T11:01:19.000Z</time>
      </trkpt>
      <trkpt lat="47.99187" lon="6.98082">
        <ele>1273.3</ele>
        <time>2021-12-09T11:01:32.000Z</time>
      </trkpt>
      <trkpt lat="47.99196" lon="6.98081">
        <ele>1275.3</ele>
        <time>2021-12-09T11:01:49.000Z</time>
      </trkpt>
      <trkpt lat="47.99206" lon="6.9808">
        <ele>1277.8</ele>
        <time>2021-12-09T11:02:13.000Z</time>
      </trkpt>
      <trkpt lat="47.99215" lon="6.9808">
        <ele>1280</ele>
        <time>2021-12-09T11:02:31.000Z</time>
      </trkpt>
      <trkpt lat="47.99225" lon="6.98078">
        <ele>1282.2</ele>
        <time>2021-12-09T11:02:46.000Z</time>
      </trkpt>
      <trkpt lat="47.99234" lon="6.98079">
        <ele>1283.5</ele>
        <time>2021-12-09T11:03:01.000Z</time>
      </trkpt>
      <trkpt lat="47.99243" lon="6.98074">
        <ele>1284.9</ele>
        <time>2021-12-09T11:03:14.000Z</time>
      </trkpt>
      <trkpt lat="47.99252" lon="6.98073">
        <ele>1286.4</ele>
        <time>2021-12-09T11:03:26.000Z</time>
      </trkpt>
      <trkpt lat="47.99261" lon="6.98073">
        <ele>1287.9</ele>
        <time>2021-12-09T11:03:37.000Z</time>
      </trkpt>
      <trkpt lat="47.99271" lon="6.98072">
        <ele>1289.4</ele>
        <time>2021-12-09T11:03:52.000Z</time>
      </trkpt>
      <trkpt lat="47.9928" lon="6.9807">
        <ele>1290.7</ele>
        <time>2021-12-09T11:04:05.000Z</time>
      </trkpt>
      <trkpt lat="47.99289" lon="6.98068">
        <ele>1291.7</ele>
        <time>2021-12-09T11:04:18.000Z</time>
      </trkpt>
      <trkpt lat="47.99299" lon="6.98069">
        <ele>1292.7</ele>
        <time>2021-12-09T11:04:31.000Z</time>
      </trkpt>
      <trkpt lat="47.99308" lon="6.98067">
        <ele>1293.8</ele>
        <time>2021-12-09T11:04:46.000Z</time>
      </trkpt>
      <trkpt lat="47.99317" lon="6.98067">
        <ele>1295.3</ele>
        <time>2021-12-09T11:04:59.000Z</time>
      </trkpt>
      <trkpt lat="47.99326" lon="6.98066">
        <ele>1296.8</ele>
        <time>2021-12-09T11:05:12.000Z</time>
      </trkpt>
      <trkpt lat="47.99336" lon="6.98065">
        <ele>1298.6</ele>
        <time>2021-12-09T11:05:25.000Z</time>
      </trkpt>
      <trkpt lat="47.99345" lon="6.98062">
        <ele>1300.7</ele>
        <time>2021-12-09T11:05:38.000Z</time>
      </trkpt>
      <trkpt lat="47.99354" lon="6.98059">
        <ele>1303</ele>
        <time>2021-12-09T11:05:52.000Z</time>
      </trkpt>
      <trkpt lat="47.99366" lon="6.98053">
        <ele>1305.8</ele>
        <time>2021-12-09T11:06:26.000Z</time>
      </trkpt>
      <trkpt lat="47.99375" lon="6.98049">
        <ele>1307.4</ele>
        <time>2021-12-09T11:06:48.000Z</time>
      </trkpt>
      <trkpt lat="47.99384" lon="6.98049">
        <ele>1309.5</ele>
        <time>2021-12-09T11:07:01.000Z</time>
      </trkpt>
      <trkpt lat="47.99394" lon="6.9805">
        <ele>1310.2</ele>
        <time>2021-12-09T11:07:10.000Z</time>
      </trkpt>
      <trkpt lat="47.99404" lon="6.98052">
        <ele>1309.7</ele>
        <time>2021-12-09T11:07:19.000Z</time>
      </trkpt>
      <trkpt lat="47.99412" lon="6.98059">
        <ele>1309.2</ele>
        <time>2021-12-09T11:07:30.000Z</time>
      </trkpt>
      <trkpt lat="47.9942" lon="6.98068">
        <ele>1307.7</ele>
        <time>2021-12-09T11:07:38.000Z</time>
      </trkpt>
      <trkpt lat="47.99429" lon="6.98074">
        <ele>1304.9</ele>
        <time>2021-12-09T11:07:46.000Z</time>
      </trkpt>
      <trkpt lat="47.99438" lon="6.98079">
        <ele>1302</ele>
        <time>2021-12-09T11:07:54.000Z</time>
      </trkpt>
      <trkpt lat="47.99447" lon="6.98084">
        <ele>1299.4</ele>
        <time>2021-12-09T11:08:09.000Z</time>
      </trkpt>
      <trkpt lat="47.99452" lon="6.98095">
        <ele>1297.1</ele>
        <time>2021-12-09T11:08:23.000Z</time>
      </trkpt>
      <trkpt lat="47.99457" lon="6.98107">
        <ele>1295</ele>
        <time>2021-12-09T11:08:32.000Z</time>
      </trkpt>
      <trkpt lat="47.99461" lon="6.9812">
        <ele>1292.8</ele>
        <time>2021-12-09T11:08:41.000Z</time>
      </trkpt>
      <trkpt lat="47.99469" lon="6.98127">
        <ele>1291.1</ele>
        <time>2021-12-09T11:08:50.000Z</time>
      </trkpt>
      <trkpt lat="47.99477" lon="6.98135">
        <ele>1289.9</ele>
        <time>2021-12-09T11:08:59.000Z</time>
      </trkpt>
      <trkpt lat="47.99486" lon="6.9814">
        <ele>1288.9</ele>
        <time>2021-12-09T11:09:07.000Z</time>
      </trkpt>
      <trkpt lat="47.99494" lon="6.98146">
        <ele>1287.8</ele>
        <time>2021-12-09T11:09:14.000Z</time>
      </trkpt>
      <trkpt lat="47.99501" lon="6.98156">
        <ele>1286.7</ele>
        <time>2021-12-09T11:09:22.000Z</time>
      </trkpt>
      <trkpt lat="47.99508" lon="6.98165">
        <ele>1285.6</ele>
        <time>2021-12-09T11:09:30.000Z</time>
      </trkpt>
      <trkpt lat="47.99517" lon="6.98172">
        <ele>1284</ele>
        <time>2021-12-09T11:09:37.000Z</time>
      </trkpt>
      <trkpt lat="47.99525" lon="6.98179">
        <ele>1282.4</ele>
        <time>2021-12-09T11:09:44.000Z</time>
      </trkpt>
      <trkpt lat="47.99533" lon="6.98185">
        <ele>1281.1</ele>
        <time>2021-12-09T11:09:52.000Z</time>
      </trkpt>
      <trkpt lat="47.9954" lon="6.98195">
        <ele>1279.5</ele>
        <time>2021-12-09T11:09:59.000Z</time>
      </trkpt>
      <trkpt lat="47.99548" lon="6.98205">
        <ele>1277.4</ele>
        <time>2021-12-09T11:10:08.000Z</time>
      </trkpt>
      <trkpt lat="47.99556" lon="6.98211">
        <ele>1276</ele>
        <time>2021-12-09T11:10:15.000Z</time>
      </trkpt>
      <trkpt lat="47.99564" lon="6.9822">
        <ele>1274.4</ele>
        <time>2021-12-09T11:10:23.000Z</time>
      </trkpt>
      <trkpt lat="47.99572" lon="6.98225">
        <ele>1273.6</ele>
        <time>2021-12-09T11:10:30.000Z</time>
      </trkpt>
      <trkpt lat="47.99581" lon="6.98232">
        <ele>1272.2</ele>
        <time>2021-12-09T11:10:40.000Z</time>
      </trkpt>
      <trkpt lat="47.99589" lon="6.9824">
        <ele>1270.9</ele>
        <time>2021-12-09T11:10:48.000Z</time>
      </trkpt>
      <trkpt lat="47.99598" lon="6.98247">
        <ele>1270</ele>
        <time>2021-12-09T11:10:56.000Z</time>
      </trkpt>
      <trkpt lat="47.99607" lon="6.98252">
        <ele>1269.6</ele>
        <time>2021-12-09T11:11:04.000Z</time>
      </trkpt>
      <trkpt lat="47.99616" lon="6.98256">
        <ele>1268.9</ele>
        <time>2021-12-09T11:11:12.000Z</time>
      </trkpt>
      <trkpt lat="47.99625" lon="6.9826">
        <ele>1268</ele>
        <time>2021-12-09T11:11:19.000Z</time>
      </trkpt>
      <trkpt lat="47.99634" lon="6.98263">
        <ele>1267.2</ele>
        <time>2021-12-09T11:11:27.000Z</time>
      </trkpt>
      <trkpt lat="47.99643" lon="6.98265">
        <ele>1266.8</ele>
        <time>2021-12-09T11:11:35.000Z</time>
      </trkpt>
      <trkpt lat="47.99653" lon="6.9827">
        <ele>1266.1</ele>
        <time>2021-12-09T11:11:44.000Z</time>
      </trkpt>
      <trkpt lat="47.99662" lon="6.98274">
        <ele>1265.5</ele>
        <time>2021-12-09T11:11:52.000Z</time>
      </trkpt>
      <trkpt lat="47.99671" lon="6.98281">
        <ele>1264.4</ele>
        <time>2021-12-09T11:12:01.000Z</time>
      </trkpt>
      <trkpt lat="47.99679" lon="6.9829">
        <ele>1263</ele>
        <time>2021-12-09T11:12:08.000Z</time>
      </trkpt>
      <trkpt lat="47.99686" lon="6.98297">
        <ele>1262</ele>
        <time>2021-12-09T11:12:17.000Z</time>
      </trkpt>
      <trkpt lat="47.99692" lon="6.98308">
        <ele>1260.5</ele>
        <time>2021-12-09T11:12:24.000Z</time>
      </trkpt>
      <trkpt lat="47.997" lon="6.98317">
        <ele>1259.1</ele>
        <time>2021-12-09T11:12:31.000Z</time>
      </trkpt>
      <trkpt lat="47.99706" lon="6.98328">
        <ele>1257.4</ele>
        <time>2021-12-09T11:12:39.000Z</time>
      </trkpt>
      <trkpt lat="47.9971" lon="6.98341">
        <ele>1255.1</ele>
        <time>2021-12-09T11:12:46.000Z</time>
      </trkpt>
      <trkpt lat="47.99715" lon="6.98352">
        <ele>1253.1</ele>
        <time>2021-12-09T11:12:54.000Z</time>
      </trkpt>
      <trkpt lat="47.99722" lon="6.98364">
        <ele>1251.4</ele>
        <time>2021-12-09T11:13:03.000Z</time>
      </trkpt>
      <trkpt lat="47.99729" lon="6.98372">
        <ele>1249.9</ele>
        <time>2021-12-09T11:13:11.000Z</time>
      </trkpt>
      <trkpt lat="47.99737" lon="6.98382">
        <ele>1248</ele>
        <time>2021-12-09T11:13:18.000Z</time>
      </trkpt>
      <trkpt lat="47.99743" lon="6.98393">
        <ele>1245.8</ele>
        <time>2021-12-09T11:13:25.000Z</time>
      </trkpt>
      <trkpt lat="47.9975" lon="6.98404">
        <ele>1243.8</ele>
        <time>2021-12-09T11:13:35.000Z</time>
      </trkpt>
      <trkpt lat="47.99757" lon="6.98413">
        <ele>1241.8</ele>
        <time>2021-12-09T11:13:42.000Z</time>
      </trkpt>
      <trkpt lat="47.99764" lon="6.98424">
        <ele>1239.5</ele>
        <time>2021-12-09T11:13:50.000Z</time>
      </trkpt>
      <trkpt lat="47.99772" lon="6.98432">
        <ele>1237.8</ele>
        <time>2021-12-09T11:13:57.000Z</time>
      </trkpt>
      <trkpt lat="47.99776" lon="6.98444">
        <ele>1235.1</ele>
        <time>2021-12-09T11:14:04.000Z</time>
      </trkpt>
      <trkpt lat="47.99779" lon="6.98458">
        <ele>1232.5</ele>
        <time>2021-12-09T11:14:12.000Z</time>
      </trkpt>
      <trkpt lat="47.99782" lon="6.98472">
        <ele>1229.6</ele>
        <time>2021-12-09T11:14:19.000Z</time>
      </trkpt>
      <trkpt lat="47.99784" lon="6.98485">
        <ele>1227</ele>
        <time>2021-12-09T11:14:26.000Z</time>
      </trkpt>
      <trkpt lat="47.99787" lon="6.98499">
        <ele>1224.2</ele>
        <time>2021-12-09T11:14:33.000Z</time>
      </trkpt>
      <trkpt lat="47.99787" lon="6.98513">
        <ele>1221.3</ele>
        <time>2021-12-09T11:14:40.000Z</time>
      </trkpt>
      <trkpt lat="47.99785" lon="6.98526">
        <ele>1218.7</ele>
        <time>2021-12-09T11:14:47.000Z</time>
      </trkpt>
      <trkpt lat="47.99781" lon="6.98538">
        <ele>1216.6</ele>
        <time>2021-12-09T11:14:58.000Z</time>
      </trkpt>
      <trkpt lat="47.99772" lon="6.98545">
        <ele>1214.9</ele>
        <time>2021-12-09T11:15:08.000Z</time>
      </trkpt>
      <trkpt lat="47.99765" lon="6.98554">
        <ele>1212.4</ele>
        <time>2021-12-09T11:15:15.000Z</time>
      </trkpt>
      <trkpt lat="47.99759" lon="6.98566">
        <ele>1209.4</ele>
        <time>2021-12-09T11:15:23.000Z</time>
      </trkpt>
      <trkpt lat="47.99752" lon="6.98575">
        <ele>1207</ele>
        <time>2021-12-09T11:15:31.000Z</time>
      </trkpt>
      <trkpt lat="47.99742" lon="6.98579">
        <ele>1203.8</ele>
        <time>2021-12-09T11:15:41.000Z</time>
      </trkpt>
      <trkpt lat="47.99733" lon="6.98576">
        <ele>1201.7</ele>
        <time>2021-12-09T11:15:50.000Z</time>
      </trkpt>
      <trkpt lat="47.99723" lon="6.98573">
        <ele>1199.5</ele>
        <time>2021-12-09T11:15:59.000Z</time>
      </trkpt>
      <trkpt lat="47.99714" lon="6.98567">
        <ele>1196.8</ele>
        <time>2021-12-09T11:16:09.000Z</time>
      </trkpt>
      <trkpt lat="47.99706" lon="6.9856">
        <ele>1194.9</ele>
        <time>2021-12-09T11:16:16.000Z</time>
      </trkpt>
      <trkpt lat="47.99697" lon="6.98556">
        <ele>1192.2</ele>
        <time>2021-12-09T11:16:24.000Z</time>
      </trkpt>
      <trkpt lat="47.99689" lon="6.98546">
        <ele>1190.6</ele>
        <time>2021-12-09T11:16:35.000Z</time>
      </trkpt>
      <trkpt lat="47.99681" lon="6.9854">
        <ele>1188.5</ele>
        <time>2021-12-09T11:16:42.000Z</time>
      </trkpt>
      <trkpt lat="47.99672" lon="6.98532">
        <ele>1186.8</ele>
        <time>2021-12-09T11:16:51.000Z</time>
      </trkpt>
      <trkpt lat="47.99662" lon="6.98527">
        <ele>1184.5</ele>
        <time>2021-12-09T11:16:59.000Z</time>
      </trkpt>
      <trkpt lat="47.99654" lon="6.98523">
        <ele>1182.5</ele>
        <time>2021-12-09T11:17:08.000Z</time>
      </trkpt>
      <trkpt lat="47.99645" lon="6.98517">
        <ele>1181.1</ele>
        <time>2021-12-09T11:17:17.000Z</time>
      </trkpt>
      <trkpt lat="47.99636" lon="6.98515">
        <ele>1178.4</ele>
        <time>2021-12-09T11:17:25.000Z</time>
      </trkpt>
      <trkpt lat="47.99627" lon="6.98513">
        <ele>1176.5</ele>
        <time>2021-12-09T11:17:33.000Z</time>
      </trkpt>
      <trkpt lat="47.99618" lon="6.98513">
        <ele>1174.2</ele>
        <time>2021-12-09T11:17:42.000Z</time>
      </trkpt>
      <trkpt lat="47.99609" lon="6.9851">
        <ele>1172.9</ele>
        <time>2021-12-09T11:17:51.000Z</time>
      </trkpt>
      <trkpt lat="47.99599" lon="6.98513">
        <ele>1170.3</ele>
        <time>2021-12-09T11:17:59.000Z</time>
      </trkpt>
      <trkpt lat="47.9959" lon="6.98518">
        <ele>1167.5</ele>
        <time>2021-12-09T11:18:09.000Z</time>
      </trkpt>
      <trkpt lat="47.99589" lon="6.98534">
        <ele>1163.1</ele>
        <time>2021-12-09T11:18:17.000Z</time>
      </trkpt>
      <trkpt lat="47.99588" lon="6.98549">
        <ele>1158.6</ele>
        <time>2021-12-09T11:18:24.000Z</time>
      </trkpt>
      <trkpt lat="47.99587" lon="6.98564">
        <ele>1154.1</ele>
        <time>2021-12-09T11:18:31.000Z</time>
      </trkpt>
      <trkpt lat="47.99585" lon="6.98579">
        <ele>1149.6</ele>
        <time>2021-12-09T11:18:40.000Z</time>
      </trkpt>
      <trkpt lat="47.99583" lon="6.98593">
        <ele>1145.1</ele>
        <time>2021-12-09T11:18:46.000Z</time>
      </trkpt>
      <trkpt lat="47.9958" lon="6.98606">
        <ele>1141</ele>
        <time>2021-12-09T11:18:55.000Z</time>
      </trkpt>
      <trkpt lat="47.99576" lon="6.98619">
        <ele>1136.7</ele>
        <time>2021-12-09T11:19:11.000Z</time>
      </trkpt>
      <trkpt lat="47.99575" lon="6.98634">
        <ele>1132.3</ele>
        <time>2021-12-09T11:19:19.000Z</time>
      </trkpt>
      <trkpt lat="47.99574" lon="6.98648">
        <ele>1128.5</ele>
        <time>2021-12-09T11:19:27.000Z</time>
      </trkpt>
      <trkpt lat="47.99575" lon="6.98662">
        <ele>1125.1</ele>
        <time>2021-12-09T11:19:35.000Z</time>
      </trkpt>
      <trkpt lat="47.99577" lon="6.98675">
        <ele>1121.8</ele>
        <time>2021-12-09T11:19:42.000Z</time>
      </trkpt>
      <trkpt lat="47.99577" lon="6.9869">
        <ele>1118.1</ele>
        <time>2021-12-09T11:19:55.000Z</time>
      </trkpt>
      <trkpt lat="47.99582" lon="6.98703">
        <ele>1115.3</ele>
        <time>2021-12-09T11:20:03.000Z</time>
      </trkpt>
      <trkpt lat="47.99587" lon="6.98715">
        <ele>1112.5</ele>
        <time>2021-12-09T11:20:11.000Z</time>
      </trkpt>
      <trkpt lat="47.99589" lon="6.98729">
        <ele>1109.3</ele>
        <time>2021-12-09T11:20:19.000Z</time>
      </trkpt>
      <trkpt lat="47.99592" lon="6.98742">
        <ele>1106.4</ele>
        <time>2021-12-09T11:20:26.000Z</time>
      </trkpt>
      <trkpt lat="47.99596" lon="6.98756">
        <ele>1103.2</ele>
        <time>2021-12-09T11:20:35.000Z</time>
      </trkpt>
      <trkpt lat="47.996" lon="6.98769">
        <ele>1099.9</ele>
        <time>2021-12-09T11:20:43.000Z</time>
      </trkpt>
      <trkpt lat="47.99601" lon="6.98783">
        <ele>1096.1</ele>
        <time>2021-12-09T11:20:50.000Z</time>
      </trkpt>
      <trkpt lat="47.99603" lon="6.98797">
        <ele>1092</ele>
        <time>2021-12-09T11:20:58.000Z</time>
      </trkpt>
      <trkpt lat="47.99604" lon="6.9881">
        <ele>1088.1</ele>
        <time>2021-12-09T11:21:05.000Z</time>
      </trkpt>
      <trkpt lat="47.99607" lon="6.98823">
        <ele>1084.2</ele>
        <time>2021-12-09T11:21:14.000Z</time>
      </trkpt>
      <trkpt lat="47.9961" lon="6.98838">
        <ele>1079.8</ele>
        <time>2021-12-09T11:21:22.000Z</time>
      </trkpt>
      <trkpt lat="47.99614" lon="6.98851">
        <ele>1076</ele>
        <time>2021-12-09T11:21:29.000Z</time>
      </trkpt>
      <trkpt lat="47.99621" lon="6.98861">
        <ele>1072.6</ele>
        <time>2021-12-09T11:21:37.000Z</time>
      </trkpt>
      <trkpt lat="47.99629" lon="6.98866">
        <ele>1071.3</ele>
        <time>2021-12-09T11:21:45.000Z</time>
      </trkpt>
      <trkpt lat="47.99636" lon="6.98876">
        <ele>1068.8</ele>
        <time>2021-12-09T11:21:53.000Z</time>
      </trkpt>
      <trkpt lat="47.99643" lon="6.98886">
        <ele>1066.9</ele>
        <time>2021-12-09T11:22:02.000Z</time>
      </trkpt>
      <trkpt lat="47.9965" lon="6.98895">
        <ele>1065.6</ele>
        <time>2021-12-09T11:22:10.000Z</time>
      </trkpt>
      <trkpt lat="47.99657" lon="6.98906">
        <ele>1064.7</ele>
        <time>2021-12-09T11:22:20.000Z</time>
      </trkpt>
      <trkpt lat="47.99663" lon="6.98916">
        <ele>1064.5</ele>
        <time>2021-12-09T11:22:31.000Z</time>
      </trkpt>
      <trkpt lat="47.99671" lon="6.98923">
        <ele>1064.3</ele>
        <time>2021-12-09T11:22:39.000Z</time>
      </trkpt>
      <trkpt lat="47.99679" lon="6.98931">
        <ele>1063</ele>
        <time>2021-12-09T11:22:48.000Z</time>
      </trkpt>
      <trkpt lat="47.99681" lon="6.98945">
        <ele>1060.8</ele>
        <time>2021-12-09T11:22:59.000Z</time>
      </trkpt>
      <trkpt lat="47.99688" lon="6.98956">
        <ele>1058.6</ele>
        <time>2021-12-09T11:23:09.000Z</time>
      </trkpt>
      <trkpt lat="47.99697" lon="6.98958">
        <ele>1057.3</ele>
        <time>2021-12-09T11:23:19.000Z</time>
      </trkpt>
      <trkpt lat="47.99707" lon="6.98961">
        <ele>1055.2</ele>
        <time>2021-12-09T11:23:28.000Z</time>
      </trkpt>
      <trkpt lat="47.99717" lon="6.98963">
        <ele>1053.5</ele>
        <time>2021-12-09T11:23:35.000Z</time>
      </trkpt>
      <trkpt lat="47.99724" lon="6.98972">
        <ele>1050.4</ele>
        <time>2021-12-09T11:23:43.000Z</time>
      </trkpt>
      <trkpt lat="47.99731" lon="6.98981">
        <ele>1048.4</ele>
        <time>2021-12-09T11:23:50.000Z</time>
      </trkpt>
      <trkpt lat="47.9974" lon="6.98989">
        <ele>1047.2</ele>
        <time>2021-12-09T11:24:00.000Z</time>
      </trkpt>
      <trkpt lat="47.99747" lon="6.98996">
        <ele>1045.8</ele>
        <time>2021-12-09T11:24:11.000Z</time>
      </trkpt>
      <trkpt lat="47.99754" lon="6.99006">
        <ele>1043.9</ele>
        <time>2021-12-09T11:24:22.000Z</time>
      </trkpt>
      <trkpt lat="47.9976" lon="6.99017">
        <ele>1041.5</ele>
        <time>2021-12-09T11:24:30.000Z</time>
      </trkpt>
      <trkpt lat="47.99764" lon="6.99029">
        <ele>1038.6</ele>
        <time>2021-12-09T11:24:40.000Z</time>
      </trkpt>
      <trkpt lat="47.99769" lon="6.99042">
        <ele>1035.1</ele>
        <time>2021-12-09T11:24:50.000Z</time>
      </trkpt>
      <trkpt lat="47.99771" lon="6.99057">
        <ele>1030.6</ele>
        <time>2021-12-09T11:25:00.000Z</time>
      </trkpt>
      <trkpt lat="47.99774" lon="6.9907">
        <ele>1026.8</ele>
        <time>2021-12-09T11:25:13.000Z</time>
      </trkpt>
      <trkpt lat="47.99777" lon="6.99084">
        <ele>1022.7</ele>
        <time>2021-12-09T11:25:23.000Z</time>
      </trkpt>
      <trkpt lat="47.99781" lon="6.99097">
        <ele>1019.3</ele>
        <time>2021-12-09T11:25:33.000Z</time>
      </trkpt>
      <trkpt lat="47.99786" lon="6.99109">
        <ele>1016.4</ele>
        <time>2021-12-09T11:25:43.000Z</time>
      </trkpt>
      <trkpt lat="47.99791" lon="6.9912">
        <ele>1013.4</ele>
        <time>2021-12-09T11:25:53.000Z</time>
      </trkpt>
      <trkpt lat="47.99798" lon="6.99131">
        <ele>1010.4</ele>
        <time>2021-12-09T11:26:06.000Z</time>
      </trkpt>
      <trkpt lat="47.99805" lon="6.99139">
        <ele>1008</ele>
        <time>2021-12-09T11:26:15.000Z</time>
      </trkpt>
      <trkpt lat="47.99811" lon="6.99151">
        <ele>1006.7</ele>
        <time>2021-12-09T11:26:31.000Z</time>
      </trkpt>
      <trkpt lat="47.99815" lon="6.99163">
        <ele>1005.1</ele>
        <time>2021-12-09T11:26:43.000Z</time>
      </trkpt>
      <trkpt lat="47.99822" lon="6.99171">
        <ele>1003.2</ele>
        <time>2021-12-09T11:26:55.000Z</time>
      </trkpt>
      <trkpt lat="47.9983" lon="6.99179">
        <ele>1001.8</ele>
        <time>2021-12-09T11:27:07.000Z</time>
      </trkpt>
      <trkpt lat="47.99835" lon="6.99191">
        <ele>1000.7</ele>
        <time>2021-12-09T11:27:18.000Z</time>
      </trkpt>
      <trkpt lat="47.99836" lon="6.99206">
        <ele>998.5</ele>
        <time>2021-12-09T11:27:27.000Z</time>
      </trkpt>
      <trkpt lat="47.99831" lon="6.99219">
        <ele>997.3</ele>
        <time>2021-12-09T11:27:38.000Z</time>
      </trkpt>
      <trkpt lat="47.99829" lon="6.99232">
        <ele>995</ele>
        <time>2021-12-09T11:27:47.000Z</time>
      </trkpt>
      <trkpt lat="47.99829" lon="6.99247">
        <ele>992.6</ele>
        <time>2021-12-09T11:27:59.000Z</time>
      </trkpt>
      <trkpt lat="47.99825" lon="6.9926">
        <ele>989</ele>
        <time>2021-12-09T11:28:13.000Z</time>
      </trkpt>
      <trkpt lat="47.99819" lon="6.99271">
        <ele>985.3</ele>
        <time>2021-12-09T11:28:22.000Z</time>
      </trkpt>
      <trkpt lat="47.9981" lon="6.99273">
        <ele>983.5</ele>
        <time>2021-12-09T11:28:36.000Z</time>
      </trkpt>
      <trkpt lat="47.99802" lon="6.99264">
        <ele>983.4</ele>
        <time>2021-12-09T11:28:48.000Z</time>
      </trkpt>
      <trkpt lat="47.99793" lon="6.99257">
        <ele>982.3</ele>
        <time>2021-12-09T11:28:59.000Z</time>
      </trkpt>
      <trkpt lat="47.99785" lon="6.99264">
        <ele>978.9</ele>
        <time>2021-12-09T11:29:11.000Z</time>
      </trkpt>
      <trkpt lat="47.99779" lon="6.99274">
        <ele>975.1</ele>
        <time>2021-12-09T11:29:18.000Z</time>
      </trkpt>
      <trkpt lat="47.99772" lon="6.99283">
        <ele>969.9</ele>
        <time>2021-12-09T11:29:28.000Z</time>
      </trkpt>
      <trkpt lat="47.99769" lon="6.99296">
        <ele>964.4</ele>
        <time>2021-12-09T11:29:38.000Z</time>
      </trkpt>
      <trkpt lat="47.99766" lon="6.99311">
        <ele>958.3</ele>
        <time>2021-12-09T11:29:47.000Z</time>
      </trkpt>
      <trkpt lat="47.99763" lon="6.99325">
        <ele>953.1</ele>
        <time>2021-12-09T11:29:56.000Z</time>
      </trkpt>
      <trkpt lat="47.99757" lon="6.99335">
        <ele>947.6</ele>
        <time>2021-12-09T11:30:04.000Z</time>
      </trkpt>
      <trkpt lat="47.99755" lon="6.99349">
        <ele>942.6</ele>
        <time>2021-12-09T11:30:11.000Z</time>
      </trkpt>
      <trkpt lat="47.99747" lon="6.99357">
        <ele>937.5</ele>
        <time>2021-12-09T11:30:20.000Z</time>
      </trkpt>
      <trkpt lat="47.99738" lon="6.99362">
        <ele>933.1</ele>
        <time>2021-12-09T11:30:33.000Z</time>
      </trkpt>
      <trkpt lat="47.99738" lon="6.99377">
        <ele>928.7</ele>
        <time>2021-12-09T11:30:44.000Z</time>
      </trkpt>
      <trkpt lat="47.99735" lon="6.9939">
        <ele>923.8</ele>
        <time>2021-12-09T11:30:53.000Z</time>
      </trkpt>
      <trkpt lat="47.99734" lon="6.99404">
        <ele>919.1</ele>
        <time>2021-12-09T11:31:05.000Z</time>
      </trkpt>
      <trkpt lat="47.9973" lon="6.99417">
        <ele>913.5</ele>
        <time>2021-12-09T11:31:14.000Z</time>
      </trkpt>
      <trkpt lat="47.99731" lon="6.99432">
        <ele>909.8</ele>
        <time>2021-12-09T11:31:25.000Z</time>
      </trkpt>
      <trkpt lat="47.99733" lon="6.99446">
        <ele>906.5</ele>
        <time>2021-12-09T11:31:33.000Z</time>
      </trkpt>
      <trkpt lat="47.9973" lon="6.9946">
        <ele>902.4</ele>
        <time>2021-12-09T11:31:43.000Z</time>
      </trkpt>
      <trkpt lat="47.99727" lon="6.99473">
        <ele>898.7</ele>
        <time>2021-12-09T11:31:51.000Z</time>
      </trkpt>
      <trkpt lat="47.9973" lon="6.99486">
        <ele>896.9</ele>
        <time>2021-12-09T11:32:01.000Z</time>
      </trkpt>
      <trkpt lat="47.99734" lon="6.99499">
        <ele>895.6</ele>
        <time>2021-12-09T11:32:11.000Z</time>
      </trkpt>
      <trkpt lat="47.99732" lon="6.99514">
        <ele>891.2</ele>
        <time>2021-12-09T11:32:29.000Z</time>
      </trkpt>
      <trkpt lat="47.9973" lon="6.99528">
        <ele>887.3</ele>
        <time>2021-12-09T11:32:36.000Z</time>
      </trkpt>
      <trkpt lat="47.99729" lon="6.99542">
        <ele>884.8</ele>
        <time>2021-12-09T11:32:45.000Z</time>
      </trkpt>
      <trkpt lat="47.9973" lon="6.99556">
        <ele>882.6</ele>
        <time>2021-12-09T11:32:53.000Z</time>
      </trkpt>
      <trkpt lat="47.9973" lon="6.99569">
        <ele>879.7</ele>
        <time>2021-12-09T11:33:05.000Z</time>
      </trkpt>
      <trkpt lat="47.99725" lon="6.99583">
        <ele>875.3</ele>
        <time>2021-12-09T11:33:15.000Z</time>
      </trkpt>
      <trkpt lat="47.99729" lon="6.99595">
        <ele>873.3</ele>
        <time>2021-12-09T11:33:22.000Z</time>
      </trkpt>
      <trkpt lat="47.99738" lon="6.99599">
        <ele>876.1</ele>
        <time>2021-12-09T11:33:48.000Z</time>
      </trkpt>
      <trkpt lat="47.99731" lon="6.9961">
        <ele>870</ele>
        <time>2021-12-09T11:34:20.000Z</time>
      </trkpt>
      <trkpt lat="47.99729" lon="6.99625">
        <ele>866.5</ele>
        <time>2021-12-09T11:34:29.000Z</time>
      </trkpt>
      <trkpt lat="47.99728" lon="6.99639">
        <ele>863.5</ele>
        <time>2021-12-09T11:34:37.000Z</time>
      </trkpt>
      <trkpt lat="47.99728" lon="6.99653">
        <ele>861.3</ele>
        <time>2021-12-09T11:34:46.000Z</time>
      </trkpt>
      <trkpt lat="47.9973" lon="6.99667">
        <ele>859.6</ele>
        <time>2021-12-09T11:34:57.000Z</time>
      </trkpt>
      <trkpt lat="47.99728" lon="6.99681">
        <ele>856.6</ele>
        <time>2021-12-09T11:35:07.000Z</time>
      </trkpt>
      <trkpt lat="47.99726" lon="6.99696">
        <ele>853.1</ele>
        <time>2021-12-09T11:35:14.000Z</time>
      </trkpt>
      <trkpt lat="47.99723" lon="6.9971">
        <ele>849.5</ele>
        <time>2021-12-09T11:35:22.000Z</time>
      </trkpt>
      <trkpt lat="47.99722" lon="6.99724">
        <ele>846.5</ele>
        <time>2021-12-09T11:35:31.000Z</time>
      </trkpt>
      <trkpt lat="47.9972" lon="6.99738">
        <ele>842.4</ele>
        <time>2021-12-09T11:35:39.000Z</time>
      </trkpt>
      <trkpt lat="47.99719" lon="6.99752">
        <ele>838.7</ele>
        <time>2021-12-09T11:35:52.000Z</time>
      </trkpt>
      <trkpt lat="47.99719" lon="6.99767">
        <ele>834.6</ele>
        <time>2021-12-09T11:36:03.000Z</time>
      </trkpt>
      <trkpt lat="47.99721" lon="6.9978">
        <ele>831</ele>
        <time>2021-12-09T11:36:10.000Z</time>
      </trkpt>
      <trkpt lat="47.99723" lon="6.99795">
        <ele>827.3</ele>
        <time>2021-12-09T11:36:21.000Z</time>
      </trkpt>
      <trkpt lat="47.99726" lon="6.9981">
        <ele>824.8</ele>
        <time>2021-12-09T11:36:29.000Z</time>
      </trkpt>
      <trkpt lat="47.99731" lon="6.99823">
        <ele>824.1</ele>
        <time>2021-12-09T11:36:37.000Z</time>
      </trkpt>
      <trkpt lat="47.99736" lon="6.99837">
        <ele>823.4</ele>
        <time>2021-12-09T11:36:45.000Z</time>
      </trkpt>
      <trkpt lat="47.99739" lon="6.99852">
        <ele>822.5</ele>
        <time>2021-12-09T11:36:52.000Z</time>
      </trkpt>
      <trkpt lat="47.99743" lon="6.99865">
        <ele>821.7</ele>
        <time>2021-12-09T11:36:59.000Z</time>
      </trkpt>
      <trkpt lat="47.9975" lon="6.99877">
        <ele>821.3</ele>
        <time>2021-12-09T11:37:06.000Z</time>
      </trkpt>
      <trkpt lat="47.99755" lon="6.99889">
        <ele>820.8</ele>
        <time>2021-12-09T11:37:13.000Z</time>
      </trkpt>
      <trkpt lat="47.99761" lon="6.999">
        <ele>819.3</ele>
        <time>2021-12-09T11:37:20.000Z</time>
      </trkpt>
      <trkpt lat="47.99766" lon="6.99911">
        <ele>817.6</ele>
        <time>2021-12-09T11:37:28.000Z</time>
      </trkpt>
      <trkpt lat="47.99774" lon="6.99921">
        <ele>817.1</ele>
        <time>2021-12-09T11:37:35.000Z</time>
      </trkpt>
      <trkpt lat="47.99781" lon="6.99932">
        <ele>816.7</ele>
        <time>2021-12-09T11:37:41.000Z</time>
      </trkpt>
      <trkpt lat="47.99785" lon="6.99946">
        <ele>814.7</ele>
        <time>2021-12-09T11:37:49.000Z</time>
      </trkpt>
      <trkpt lat="47.99789" lon="6.99959">
        <ele>813.3</ele>
        <time>2021-12-09T11:37:56.000Z</time>
      </trkpt>
      <trkpt lat="47.99795" lon="6.9997">
        <ele>812.6</ele>
        <time>2021-12-09T11:38:02.000Z</time>
      </trkpt>
      <trkpt lat="47.99799" lon="6.99983">
        <ele>811</ele>
        <time>2021-12-09T11:38:09.000Z</time>
      </trkpt>
      <trkpt lat="47.99803" lon="6.99996">
        <ele>809.1</ele>
        <time>2021-12-09T11:38:17.000Z</time>
      </trkpt>
      <trkpt lat="47.9981" lon="7.00007">
        <ele>807.6</ele>
        <time>2021-12-09T11:38:24.000Z</time>
      </trkpt>
      <trkpt lat="47.99817" lon="7.00017">
        <ele>805.9</ele>
        <time>2021-12-09T11:38:31.000Z</time>
      </trkpt>
      <trkpt lat="47.99824" lon="7.00026">
        <ele>804.1</ele>
        <time>2021-12-09T11:38:38.000Z</time>
      </trkpt>
      <trkpt lat="47.99832" lon="7.00034">
        <ele>802.9</ele>
        <time>2021-12-09T11:38:44.000Z</time>
      </trkpt>
      <trkpt lat="47.99842" lon="7.00039">
        <ele>801.8</ele>
        <time>2021-12-09T11:38:50.000Z</time>
      </trkpt>
      <trkpt lat="47.99852" lon="7.00035">
        <ele>802.7</ele>
        <time>2021-12-09T11:38:56.000Z</time>
      </trkpt>
      <trkpt lat="47.99859" lon="7.00045">
        <ele>800.4</ele>
        <time>2021-12-09T11:39:14.000Z</time>
      </trkpt>
      <trkpt lat="47.9986" lon="7.00059">
        <ele>797.3</ele>
        <time>2021-12-09T11:39:23.000Z</time>
      </trkpt>
      <trkpt lat="47.99862" lon="7.00073">
        <ele>794</ele>
        <time>2021-12-09T11:39:30.000Z</time>
      </trkpt>
      <trkpt lat="47.99863" lon="7.00087">
        <ele>790.6</ele>
        <time>2021-12-09T11:39:41.000Z</time>
      </trkpt>
      <trkpt lat="47.99866" lon="7.00101">
        <ele>786.4</ele>
        <time>2021-12-09T11:39:51.000Z</time>
      </trkpt>
      <trkpt lat="47.99867" lon="7.00115">
        <ele>783.1</ele>
        <time>2021-12-09T11:40:00.000Z</time>
      </trkpt>
      <trkpt lat="47.99866" lon="7.00129">
        <ele>780.6</ele>
        <time>2021-12-09T11:40:09.000Z</time>
      </trkpt>
      <trkpt lat="47.99869" lon="7.00142">
        <ele>776.8</ele>
        <time>2021-12-09T11:40:28.000Z</time>
      </trkpt>
      <trkpt lat="47.99869" lon="7.00156">
        <ele>774</ele>
        <time>2021-12-09T11:40:37.000Z</time>
      </trkpt>
      <trkpt lat="47.99877" lon="7.00165">
        <ele>769.8</ele>
        <time>2021-12-09T11:40:45.000Z</time>
      </trkpt>
      <trkpt lat="47.99885" lon="7.00173">
        <ele>765.9</ele>
        <time>2021-12-09T11:40:53.000Z</time>
      </trkpt>
      <trkpt lat="47.99894" lon="7.00166">
        <ele>763.9</ele>
        <time>2021-12-09T11:41:08.000Z</time>
      </trkpt>
      <trkpt lat="47.99901" lon="7.00155">
        <ele>762.5</ele>
        <time>2021-12-09T11:41:14.000Z</time>
      </trkpt>
      <trkpt lat="47.99905" lon="7.00143">
        <ele>762.5</ele>
        <time>2021-12-09T11:41:21.000Z</time>
      </trkpt>
      <trkpt lat="47.99911" lon="7.00132">
        <ele>761.6</ele>
        <time>2021-12-09T11:41:28.000Z</time>
      </trkpt>
      <trkpt lat="47.99915" lon="7.00119">
        <ele>760.9</ele>
        <time>2021-12-09T11:41:36.000Z</time>
      </trkpt>
      <trkpt lat="47.9992" lon="7.00107">
        <ele>760.1</ele>
        <time>2021-12-09T11:41:44.000Z</time>
      </trkpt>
      <trkpt lat="47.99927" lon="7.00096">
        <ele>758.6</ele>
        <time>2021-12-09T11:41:50.000Z</time>
      </trkpt>
      <trkpt lat="47.99935" lon="7.00088">
        <ele>756.6</ele>
        <time>2021-12-09T11:41:56.000Z</time>
      </trkpt>
      <trkpt lat="47.99942" lon="7.00078">
        <ele>754.8</ele>
        <time>2021-12-09T11:42:04.000Z</time>
      </trkpt>
      <trkpt lat="47.99949" lon="7.00067">
        <ele>753.3</ele>
        <time>2021-12-09T11:42:11.000Z</time>
      </trkpt>
      <trkpt lat="47.99956" lon="7.00057">
        <ele>752.1</ele>
        <time>2021-12-09T11:42:19.000Z</time>
      </trkpt>
      <trkpt lat="47.99963" lon="7.00045">
        <ele>750.8</ele>
        <time>2021-12-09T11:42:27.000Z</time>
      </trkpt>
      <trkpt lat="47.9997" lon="7.00035">
        <ele>748.8</ele>
        <time>2021-12-09T11:42:34.000Z</time>
      </trkpt>
      <trkpt lat="47.99975" lon="7.00022">
        <ele>749</ele>
        <time>2021-12-09T11:42:41.000Z</time>
      </trkpt>
      <trkpt lat="47.99982" lon="7.00014">
        <ele>747.3</ele>
        <time>2021-12-09T11:42:49.000Z</time>
      </trkpt>
      <trkpt lat="47.99989" lon="7.00004">
        <ele>745.5</ele>
        <time>2021-12-09T11:42:55.000Z</time>
      </trkpt>
      <trkpt lat="47.99994" lon="6.99991">
        <ele>745.2</ele>
        <time>2021-12-09T11:43:03.000Z</time>
      </trkpt>
      <trkpt lat="48.00002" lon="6.99986">
        <ele>742.1</ele>
        <time>2021-12-09T11:43:46.000Z</time>
      </trkpt>
      <trkpt lat="48.0001" lon="6.99977">
        <ele>740.5</ele>
        <time>2021-12-09T11:44:09.000Z</time>
      </trkpt>
      <trkpt lat="48.00015" lon="6.99966">
        <ele>739.7</ele>
        <time>2021-12-09T11:44:15.000Z</time>
      </trkpt>
      <trkpt lat="48.00021" lon="6.99956">
        <ele>738.5</ele>
        <time>2021-12-09T11:44:20.000Z</time>
      </trkpt>
      <trkpt lat="48.00029" lon="6.99947">
        <ele>736.3</ele>
        <time>2021-12-09T11:44:28.000Z</time>
      </trkpt>
      <trkpt lat="48.00035" lon="6.99937">
        <ele>735</ele>
        <time>2021-12-09T11:44:35.000Z</time>
      </trkpt>
      <trkpt lat="48.00042" lon="6.99927">
        <ele>733.5</ele>
        <time>2021-12-09T11:44:41.000Z</time>
      </trkpt>
      <trkpt lat="48.00047" lon="6.99916">
        <ele>732.7</ele>
        <time>2021-12-09T11:44:47.000Z</time>
      </trkpt>
      <trkpt lat="48.00053" lon="6.99904">
        <ele>732.1</ele>
        <time>2021-12-09T11:44:56.000Z</time>
      </trkpt>
      <trkpt lat="48.00058" lon="6.99892">
        <ele>731.6</ele>
        <time>2021-12-09T11:45:04.000Z</time>
      </trkpt>
      <trkpt lat="48.00066" lon="6.99883">
        <ele>729.4</ele>
        <time>2021-12-09T11:45:12.000Z</time>
      </trkpt>
      <trkpt lat="48.00071" lon="6.99872">
        <ele>728.3</ele>
        <time>2021-12-09T11:45:19.000Z</time>
      </trkpt>
      <trkpt lat="48.00075" lon="6.99859">
        <ele>727.7</ele>
        <time>2021-12-09T11:45:28.000Z</time>
      </trkpt>
      <trkpt lat="48.00082" lon="6.99849">
        <ele>725.9</ele>
        <time>2021-12-09T11:45:36.000Z</time>
      </trkpt>
      <trkpt lat="48.00091" lon="6.99845">
        <ele>724.8</ele>
        <time>2021-12-09T11:45:44.000Z</time>
      </trkpt>
      <trkpt lat="48.00099" lon="6.99849">
        <ele>723.3</ele>
        <time>2021-12-09T11:45:55.000Z</time>
      </trkpt>
      <trkpt lat="48.001" lon="6.99864">
        <ele>722</ele>
        <time>2021-12-09T11:46:05.000Z</time>
      </trkpt>
      <trkpt lat="48.00098" lon="6.99879">
        <ele>720.8</ele>
        <time>2021-12-09T11:46:12.000Z</time>
      </trkpt>
      <trkpt lat="48.00099" lon="6.99895">
        <ele>719.3</ele>
        <time>2021-12-09T11:46:19.000Z</time>
      </trkpt>
      <trkpt lat="48.00101" lon="6.9991">
        <ele>717.5</ele>
        <time>2021-12-09T11:46:25.000Z</time>
      </trkpt>
      <trkpt lat="48.00104" lon="6.99922">
        <ele>715.6</ele>
        <time>2021-12-09T11:46:31.000Z</time>
      </trkpt>
      <trkpt lat="48.00103" lon="6.99937">
        <ele>713.8</ele>
        <time>2021-12-09T11:46:39.000Z</time>
      </trkpt>
      <trkpt lat="48.00104" lon="6.99951">
        <ele>712.3</ele>
        <time>2021-12-09T11:46:45.000Z</time>
      </trkpt>
      <trkpt lat="48.00102" lon="6.99965">
        <ele>711.5</ele>
        <time>2021-12-09T11:46:54.000Z</time>
      </trkpt>
      <trkpt lat="48.00101" lon="6.99979">
        <ele>710.5</ele>
        <time>2021-12-09T11:47:02.000Z</time>
      </trkpt>
      <trkpt lat="48.00097" lon="6.99993">
        <ele>709.7</ele>
        <time>2021-12-09T11:47:09.000Z</time>
      </trkpt>
      <trkpt lat="48.00092" lon="7.00004">
        <ele>709</ele>
        <time>2021-12-09T11:47:15.000Z</time>
      </trkpt>
      <trkpt lat="48.0009" lon="7.00017">
        <ele>707.5</ele>
        <time>2021-12-09T11:47:21.000Z</time>
      </trkpt>
      <trkpt lat="48.00086" lon="7.00031">
        <ele>705.8</ele>
        <time>2021-12-09T11:47:29.000Z</time>
      </trkpt>
      <trkpt lat="48.00081" lon="7.00044">
        <ele>704.8</ele>
        <time>2021-12-09T11:47:35.000Z</time>
      </trkpt>
      <trkpt lat="48.00076" lon="7.00056">
        <ele>704.2</ele>
        <time>2021-12-09T11:47:40.000Z</time>
      </trkpt>
      <trkpt lat="48.00077" lon="7.0007">
        <ele>702.8</ele>
        <time>2021-12-09T11:47:56.000Z</time>
      </trkpt>
      <trkpt lat="48.00077" lon="7.00086">
        <ele>701.2</ele>
        <time>2021-12-09T11:48:03.000Z</time>
      </trkpt>
      <trkpt lat="48.00078" lon="7.00101">
        <ele>699.8</ele>
        <time>2021-12-09T11:48:09.000Z</time>
      </trkpt>
      <trkpt lat="48.00079" lon="7.00114">
        <ele>698.5</ele>
        <time>2021-12-09T11:48:15.000Z</time>
      </trkpt>
      <trkpt lat="48.00078" lon="7.00127">
        <ele>697.1</ele>
        <time>2021-12-09T11:48:20.000Z</time>
      </trkpt>
      <trkpt lat="48.00082" lon="7.00142">
        <ele>695.7</ele>
        <time>2021-12-09T11:48:26.000Z</time>
      </trkpt>
      <trkpt lat="48.00086" lon="7.00154">
        <ele>695</ele>
        <time>2021-12-09T11:48:31.000Z</time>
      </trkpt>
      <trkpt lat="48.00091" lon="7.00166">
        <ele>694.1</ele>
        <time>2021-12-09T11:48:38.000Z</time>
      </trkpt>
      <trkpt lat="48.00095" lon="7.00178">
        <ele>692.2</ele>
        <time>2021-12-09T11:48:44.000Z</time>
      </trkpt>
      <trkpt lat="48.00103" lon="7.00187">
        <ele>690.9</ele>
        <time>2021-12-09T11:48:51.000Z</time>
      </trkpt>
      <trkpt lat="48.00112" lon="7.00194">
        <ele>690.2</ele>
        <time>2021-12-09T11:48:57.000Z</time>
      </trkpt>
      <trkpt lat="48.0012" lon="7.00201">
        <ele>689.2</ele>
        <time>2021-12-09T11:49:02.000Z</time>
      </trkpt>
      <trkpt lat="48.00129" lon="7.00209">
        <ele>688.4</ele>
        <time>2021-12-09T11:49:08.000Z</time>
      </trkpt>
      <trkpt lat="48.00132" lon="7.00222">
        <ele>686.6</ele>
        <time>2021-12-09T11:49:16.000Z</time>
      </trkpt>
      <trkpt lat="48.0013" lon="7.00235">
        <ele>685.1</ele>
        <time>2021-12-09T11:49:24.000Z</time>
      </trkpt>
      <trkpt lat="48.00132" lon="7.00239">
        <ele>684.9</ele>
        <time>2021-12-09T11:49:56.000Z</time>
      </trkpt>
    </trkseg>
  </trk>
</gpx>